QFA107 YSSY-KLAX
Flight info
| Callsign | QFA107 |
|---|---|
| Flight time | N/A |
| Altitude | 33000 |
| Route | DIPSO G595 SOTKI DCT UBLIN/N0494F350 A579 TANIL DCT NN B581 WOOBY/N0493F370 DCT QUIGG B577 CANOL/N0483F390 B577 FICKY GOATZ2 |
| Aircraft | A388/J-SADE2E3FGHIJ3J4J5M1RWXY/LB1D1 |
Departure
| Time | N/A |
|---|---|
| Airport | Sydney Kingsford Smith International Airport (YSSY) |
Arrival
| Time | 2026-05-07 11:33 |
|---|---|
| Airport | Los Angeles International Airport (KLAX) |
| Time | Latitude | Longitude | Altitude | Speed | Heading |
|---|---|---|---|---|---|
| 2026-05-07 04:21 | -3.35373 | -164.65715 | 36850 ft | 501 kts | 62° |
| 2026-05-07 04:21 | -3.32224 | -164.59322 | 36848 ft | 501 kts | 62° |
| 2026-05-07 04:22 | -3.29141 | -164.53065 | 36845 ft | 501 kts | 62° |
| 2026-05-07 04:22 | -3.26075 | -164.46842 | 36845 ft | 501 kts | 62° |
| 2026-05-07 04:23 | -3.22997 | -164.40595 | 36841 ft | 500 kts | 62° |
| 2026-05-07 04:23 | -3.19911 | -164.34335 | 36841 ft | 500 kts | 62° |
| 2026-05-07 04:24 | -3.16826 | -164.28076 | 36831 ft | 500 kts | 62° |
| 2026-05-07 04:24 | -3.13765 | -164.21870 | 36831 ft | 501 kts | 62° |
| 2026-05-07 04:25 | -3.10673 | -164.15600 | 36837 ft | 501 kts | 62° |
| 2026-05-07 04:25 | -3.07608 | -164.09386 | 36839 ft | 501 kts | 62° |
| 2026-05-07 04:26 | -3.04521 | -164.03128 | 36848 ft | 501 kts | 62° |
| 2026-05-07 04:26 | -3.01436 | -163.96876 | 36837 ft | 502 kts | 62° |
| 2026-05-07 04:27 | -2.98332 | -163.90586 | 36843 ft | 503 kts | 62° |
| 2026-05-07 04:27 | -2.95249 | -163.84341 | 36847 ft | 503 kts | 62° |
| 2026-05-07 04:28 | -2.92144 | -163.78051 | 36872 ft | 503 kts | 62° |
| 2026-05-07 04:28 | -2.89044 | -163.71774 | 36852 ft | 502 kts | 62° |
| 2026-05-07 04:29 | -2.85966 | -163.65541 | 36844 ft | 502 kts | 62° |
| 2026-05-07 04:29 | -2.82871 | -163.59274 | 36846 ft | 501 kts | 62° |
| 2026-05-07 04:30 | -2.79782 | -163.53021 | 36844 ft | 500 kts | 62° |
| 2026-05-07 04:30 | -2.76694 | -163.46772 | 36839 ft | 500 kts | 62° |
| 2026-05-07 04:31 | -2.73632 | -163.40575 | 36838 ft | 500 kts | 62° |
| 2026-05-07 04:31 | -2.70548 | -163.34337 | 36837 ft | 500 kts | 62° |
| 2026-05-07 04:32 | -2.67466 | -163.28103 | 36835 ft | 500 kts | 62° |
| 2026-05-07 04:32 | -2.64398 | -163.21896 | 36845 ft | 500 kts | 62° |
| 2026-05-07 04:33 | -2.61309 | -163.15650 | 36845 ft | 501 kts | 62° |
| 2026-05-07 04:33 | -2.58212 | -163.09387 | 36853 ft | 501 kts | 62° |
| 2026-05-07 04:34 | -2.55120 | -163.03136 | 36852 ft | 501 kts | 62° |
| 2026-05-07 04:34 | -2.52045 | -162.96919 | 36876 ft | 500 kts | 62° |
| 2026-05-07 04:35 | -2.48963 | -162.90689 | 36876 ft | 499 kts | 62° |
| 2026-05-07 04:35 | -2.45880 | -162.84460 | 36849 ft | 497 kts | 62° |
| 2026-05-07 04:36 | -2.42813 | -162.78263 | 36852 ft | 496 kts | 62° |
| 2026-05-07 04:36 | -2.39775 | -162.72126 | 36844 ft | 495 kts | 62° |
| 2026-05-07 04:37 | -2.36735 | -162.65984 | 36840 ft | 494 kts | 62° |
| 2026-05-07 04:37 | -2.33684 | -162.59822 | 36837 ft | 494 kts | 62° |
| 2026-05-07 04:38 | -2.30633 | -162.53662 | 36838 ft | 494 kts | 62° |
| 2026-05-07 04:38 | -2.27598 | -162.47534 | 36844 ft | 494 kts | 62° |
| 2026-05-07 04:39 | -2.24543 | -162.41365 | 36846 ft | 495 kts | 62° |
| 2026-05-07 04:39 | -2.21479 | -162.35181 | 36851 ft | 495 kts | 62° |
| 2026-05-07 04:40 | -2.18413 | -162.28992 | 36859 ft | 496 kts | 62° |
| 2026-05-07 04:40 | -2.15369 | -162.22847 | 36851 ft | 496 kts | 62° |
| 2026-05-07 04:41 | -2.12301 | -162.16656 | 36854 ft | 497 kts | 62° |
| 2026-05-07 04:41 | -2.09227 | -162.10455 | 36859 ft | 497 kts | 62° |
| 2026-05-07 04:42 | -2.06168 | -162.04282 | 36856 ft | 498 kts | 62° |
| 2026-05-07 04:42 | -2.03092 | -161.98078 | 36853 ft | 498 kts | 62° |
| 2026-05-07 04:43 | -2.00012 | -161.91866 | 36854 ft | 498 kts | 62° |
| 2026-05-07 04:43 | -1.96953 | -161.85695 | 36859 ft | 497 kts | 62° |
| 2026-05-07 04:44 | -1.93869 | -161.79476 | 36854 ft | 497 kts | 62° |
| 2026-05-07 04:44 | -1.90811 | -161.73311 | 36854 ft | 497 kts | 62° |
| 2026-05-07 04:45 | -1.87736 | -161.67111 | 36858 ft | 497 kts | 62° |
| 2026-05-07 04:45 | -1.84652 | -161.60895 | 36865 ft | 497 kts | 62° |
| 2026-05-07 04:46 | -1.81596 | -161.54734 | 36879 ft | 497 kts | 62° |
| 2026-05-07 04:46 | -1.78530 | -161.48555 | 36879 ft | 495 kts | 62° |
| 2026-05-07 04:47 | -1.75470 | -161.42387 | 36860 ft | 494 kts | 62° |
| 2026-05-07 04:47 | -1.72414 | -161.36229 | 36847 ft | 493 kts | 62° |
| 2026-05-07 04:48 | -1.69382 | -161.30120 | 36851 ft | 492 kts | 62° |
| 2026-05-07 04:48 | -1.66335 | -161.23982 | 36849 ft | 492 kts | 62° |
| 2026-05-07 04:49 | -1.63290 | -161.17847 | 36849 ft | 492 kts | 62° |
| 2026-05-07 04:49 | -1.60267 | -161.11758 | 36850 ft | 492 kts | 62° |
| 2026-05-07 04:50 | -1.57214 | -161.05610 | 36857 ft | 492 kts | 62° |
| 2026-05-07 04:50 | -1.54165 | -160.99469 | 36860 ft | 493 kts | 62° |
| 2026-05-07 04:51 | -1.51128 | -160.93353 | 36855 ft | 493 kts | 62° |
| 2026-05-07 04:51 | -1.48075 | -160.87206 | 36856 ft | 494 kts | 62° |
| 2026-05-07 04:52 | -1.45033 | -160.81079 | 36854 ft | 494 kts | 62° |
| 2026-05-07 04:52 | -1.41977 | -160.74928 | 36875 ft | 494 kts | 62° |
| 2026-05-07 04:53 | -1.38917 | -160.68766 | 36874 ft | 494 kts | 62° |
| 2026-05-07 04:53 | -1.35858 | -160.62609 | 36858 ft | 494 kts | 62° |
| 2026-05-07 04:54 | -1.32810 | -160.56474 | 36857 ft | 493 kts | 62° |
| 2026-05-07 04:54 | -1.29759 | -160.50333 | 36875 ft | 493 kts | 62° |
| 2026-05-07 04:55 | -1.26703 | -160.44182 | 36877 ft | 493 kts | 62° |
| 2026-05-07 04:55 | -1.23667 | -160.38073 | 36880 ft | 493 kts | 62° |
| 2026-05-07 04:56 | -1.20614 | -160.31930 | 36879 ft | 492 kts | 62° |
| 2026-05-07 04:56 | -1.17569 | -160.25803 | 36876 ft | 492 kts | 62° |
| 2026-05-07 04:57 | -1.14535 | -160.19699 | 36868 ft | 492 kts | 62° |
| 2026-05-07 04:57 | -1.11482 | -160.13556 | 36848 ft | 493 kts | 62° |
| 2026-05-07 04:58 | -1.08428 | -160.07413 | 36850 ft | 493 kts | 62° |
| 2026-05-07 04:58 | -1.05376 | -160.01274 | 36856 ft | 493 kts | 62° |
| 2026-05-07 04:59 | -1.02342 | -159.95171 | 36871 ft | 493 kts | 62° |
| 2026-05-07 04:59 | -0.99286 | -159.89025 | 36872 ft | 493 kts | 62° |
| 2026-05-07 05:00 | -0.96745 | -159.83913 | 36871 ft | 493 kts | 62° |
| 2026-05-07 05:00 | -0.93689 | -159.77768 | 36872 ft | 493 kts | 62° |
| 2026-05-07 05:01 | -0.90654 | -159.71664 | 36875 ft | 493 kts | 62° |
| 2026-05-07 05:01 | -0.87595 | -159.65511 | 36874 ft | 493 kts | 62° |
| 2026-05-07 05:02 | -0.84535 | -159.59360 | 36872 ft | 493 kts | 62° |
| 2026-05-07 05:02 | -0.81495 | -159.53248 | 36871 ft | 493 kts | 62° |
| 2026-05-07 05:03 | -0.78434 | -159.47092 | 36850 ft | 494 kts | 62° |
| 2026-05-07 05:03 | -0.75392 | -159.40975 | 36850 ft | 494 kts | 62° |
| 2026-05-07 05:04 | -0.72330 | -159.34818 | 36869 ft | 494 kts | 62° |
| 2026-05-07 05:04 | -0.69265 | -159.28658 | 36876 ft | 494 kts | 62° |
| 2026-05-07 05:05 | -0.66221 | -159.22537 | 36874 ft | 494 kts | 62° |
| 2026-05-07 05:05 | -0.63161 | -159.16385 | 36870 ft | 494 kts | 62° |
| 2026-05-07 05:06 | -0.60091 | -159.10215 | 36872 ft | 494 kts | 62° |
| 2026-05-07 05:06 | -0.57030 | -159.04063 | 36872 ft | 494 kts | 62° |
| 2026-05-07 05:07 | -0.53981 | -158.97934 | 36872 ft | 494 kts | 62° |
| 2026-05-07 05:07 | -0.50914 | -158.91770 | 36873 ft | 494 kts | 62° |
| 2026-05-07 05:08 | -0.47864 | -158.85640 | 36871 ft | 494 kts | 62° |
| 2026-05-07 05:08 | -0.44802 | -158.79485 | 36872 ft | 494 kts | 62° |
| 2026-05-07 05:09 | -0.41735 | -158.73320 | 36875 ft | 494 kts | 62° |
| 2026-05-07 05:09 | -0.38691 | -158.67203 | 36872 ft | 494 kts | 62° |
| 2026-05-07 05:10 | -0.35627 | -158.61046 | 36875 ft | 494 kts | 62° |
| 2026-05-07 05:10 | -0.32571 | -158.54903 | 36873 ft | 494 kts | 62° |
| 2026-05-07 05:11 | -0.29524 | -158.48780 | 36872 ft | 494 kts | 62° |
| 2026-05-07 05:11 | -0.26460 | -158.42622 | 36871 ft | 494 kts | 62° |
| 2026-05-07 05:12 | -0.23412 | -158.36496 | 36871 ft | 494 kts | 62° |
| 2026-05-07 05:12 | -0.20349 | -158.30341 | 36872 ft | 494 kts | 62° |
| 2026-05-07 05:13 | -0.17298 | -158.24210 | 36872 ft | 494 kts | 62° |
| 2026-05-07 05:13 | -0.14231 | -158.18047 | 36864 ft | 494 kts | 62° |
| 2026-05-07 05:14 | -0.11162 | -158.11880 | 36870 ft | 495 kts | 62° |
| 2026-05-07 05:14 | -0.08116 | -158.05759 | 36871 ft | 495 kts | 62° |
| 2026-05-07 05:15 | -0.05044 | -157.99586 | 36875 ft | 495 kts | 62° |
| 2026-05-07 05:15 | -0.01976 | -157.93422 | 36876 ft | 496 kts | 62° |
| 2026-05-07 05:16 | 0.01098 | -157.87244 | 36882 ft | 496 kts | 62° |
| 2026-05-07 05:16 | 0.04152 | -157.81107 | 36885 ft | 495 kts | 62° |
| 2026-05-07 05:17 | 0.07229 | -157.74924 | 36880 ft | 495 kts | 62° |
| 2026-05-07 05:17 | 0.10297 | -157.68758 | 36877 ft | 495 kts | 62° |
| 2026-05-07 05:18 | 0.13343 | -157.62637 | 36879 ft | 494 kts | 62° |
| 2026-05-07 05:18 | 0.16411 | -157.56472 | 36878 ft | 494 kts | 62° |
| 2026-05-07 05:19 | 0.19456 | -157.50352 | 36872 ft | 494 kts | 62° |
| 2026-05-07 05:19 | 0.22509 | -157.44218 | 36872 ft | 494 kts | 62° |
| 2026-05-07 05:20 | 0.25573 | -157.38061 | 36871 ft | 494 kts | 62° |
| 2026-05-07 05:20 | 0.28635 | -157.31906 | 36872 ft | 494 kts | 62° |
| 2026-05-07 05:21 | 0.33220 | -157.22693 | 36874 ft | 494 kts | 62° |
| 2026-05-07 05:22 | 0.36267 | -157.16570 | 36876 ft | 495 kts | 62° |
| 2026-05-07 05:22 | 0.39336 | -157.10402 | 36878 ft | 495 kts | 62° |
| 2026-05-07 05:23 | 0.42410 | -157.04223 | 36882 ft | 496 kts | 62° |
| 2026-05-07 05:23 | 0.45466 | -156.98081 | 36884 ft | 496 kts | 62° |
| 2026-05-07 05:24 | 0.48547 | -156.91890 | 36886 ft | 496 kts | 62° |
| 2026-05-07 05:24 | 0.51623 | -156.85707 | 36887 ft | 496 kts | 62° |
| 2026-05-07 05:25 | 0.54675 | -156.79572 | 36890 ft | 496 kts | 62° |
| 2026-05-07 05:25 | 0.57737 | -156.73417 | 36889 ft | 495 kts | 62° |
| 2026-05-07 05:26 | 0.60808 | -156.67243 | 36887 ft | 495 kts | 62° |
| 2026-05-07 05:26 | 0.63864 | -156.61100 | 36886 ft | 495 kts | 62° |
| 2026-05-07 05:27 | 0.66932 | -156.54933 | 36879 ft | 495 kts | 62° |
| 2026-05-07 05:27 | 0.69995 | -156.48774 | 36879 ft | 495 kts | 62° |
| 2026-05-07 05:28 | 0.73037 | -156.42659 | 36899 ft | 494 kts | 63° |
| 2026-05-07 05:28 | 0.76099 | -156.36504 | 36889 ft | 493 kts | 63° |
| 2026-05-07 05:29 | 0.79153 | -156.30363 | 36882 ft | 493 kts | 63° |
| 2026-05-07 05:29 | 0.82190 | -156.24256 | 36879 ft | 492 kts | 63° |
| 2026-05-07 05:30 | 0.85238 | -156.18129 | 36882 ft | 492 kts | 62° |
| 2026-05-07 05:30 | 0.88272 | -156.12027 | 36885 ft | 492 kts | 62° |
| 2026-05-07 05:31 | 0.91319 | -156.05900 | 36890 ft | 491 kts | 62° |
| 2026-05-07 05:31 | 0.94362 | -155.99783 | 36886 ft | 492 kts | 63° |
| 2026-05-07 05:32 | 0.97409 | -155.93653 | 36887 ft | 492 kts | 63° |
| 2026-05-07 05:32 | 1.00443 | -155.87551 | 36870 ft | 493 kts | 63° |
| 2026-05-07 05:33 | 1.03499 | -155.81408 | 36878 ft | 494 kts | 62° |
| 2026-05-07 05:33 | 1.07234 | -155.75652 | 36903 ft | 493 kts | 49° |
| 2026-05-07 05:34 | 1.11989 | -155.70790 | 36904 ft | 491 kts | 42° |
| 2026-05-07 05:34 | 1.16973 | -155.66098 | 36908 ft | 491 kts | 43° |
| 2026-05-07 05:35 | 1.21932 | -155.61412 | 36908 ft | 490 kts | 43° |
| 2026-05-07 05:35 | 1.26906 | -155.56720 | 36885 ft | 491 kts | 42° |
| 2026-05-07 05:36 | 1.31853 | -155.52057 | 36882 ft | 491 kts | 43° |
| 2026-05-07 05:36 | 1.36828 | -155.47366 | 36881 ft | 491 kts | 42° |
| 2026-05-07 05:37 | 1.41810 | -155.42668 | 36887 ft | 492 kts | 42° |
| 2026-05-07 05:37 | 1.46774 | -155.37988 | 36894 ft | 492 kts | 42° |
| 2026-05-07 05:38 | 1.51752 | -155.33293 | 36896 ft | 492 kts | 42° |
| 2026-05-07 05:38 | 1.56733 | -155.28596 | 36892 ft | 492 kts | 42° |
| 2026-05-07 05:39 | 1.61699 | -155.23913 | 36883 ft | 493 kts | 42° |
| 2026-05-07 05:39 | 1.66685 | -155.19209 | 36886 ft | 493 kts | 42° |
| 2026-05-07 05:40 | 1.71700 | -155.14478 | 36891 ft | 494 kts | 42° |
| 2026-05-07 05:40 | 1.76679 | -155.09782 | 36886 ft | 495 kts | 43° |
| 2026-05-07 05:41 | 1.81694 | -155.05051 | 36889 ft | 495 kts | 43° |
| 2026-05-07 05:41 | 1.86684 | -155.00342 | 36891 ft | 496 kts | 43° |
| 2026-05-07 05:42 | 1.91724 | -154.95587 | 36890 ft | 496 kts | 42° |
| 2026-05-07 05:42 | 1.96731 | -154.90862 | 36894 ft | 497 kts | 42° |
| 2026-05-07 05:43 | 2.01766 | -154.86110 | 36899 ft | 497 kts | 42° |
| 2026-05-07 05:43 | 2.06777 | -154.81381 | 36898 ft | 497 kts | 42° |
| 2026-05-07 05:44 | 2.11836 | -154.76605 | 36909 ft | 497 kts | 42° |
| 2026-05-07 05:44 | 2.16826 | -154.71895 | 36901 ft | 496 kts | 42° |
| 2026-05-07 05:45 | 2.21849 | -154.67152 | 36900 ft | 495 kts | 42° |
| 2026-05-07 05:45 | 2.26857 | -154.62424 | 36896 ft | 494 kts | 42° |
| 2026-05-07 05:46 | 2.31845 | -154.57715 | 36889 ft | 494 kts | 43° |
| 2026-05-07 05:46 | 2.36841 | -154.52996 | 36886 ft | 494 kts | 42° |
| 2026-05-07 05:47 | 2.41856 | -154.48260 | 36890 ft | 494 kts | 43° |
| 2026-05-07 05:47 | 2.46821 | -154.43570 | 36900 ft | 493 kts | 43° |
| 2026-05-07 05:48 | 2.51827 | -154.38840 | 36899 ft | 493 kts | 43° |
| 2026-05-07 05:48 | 2.56787 | -154.34154 | 36892 ft | 493 kts | 43° |
| 2026-05-07 05:49 | 2.61787 | -154.29430 | 36892 ft | 493 kts | 43° |
| 2026-05-07 05:49 | 2.66751 | -154.24738 | 36892 ft | 493 kts | 43° |
| 2026-05-07 05:50 | 2.71744 | -154.20019 | 36896 ft | 493 kts | 43° |
| 2026-05-07 05:50 | 2.76721 | -154.15316 | 36902 ft | 493 kts | 43° |
| 2026-05-07 05:51 | 2.80866 | -154.11397 | 36900 ft | 493 kts | 43° |
| 2026-05-07 05:51 | 2.86677 | -154.05903 | 36893 ft | 493 kts | 43° |
| 2026-05-07 05:52 | 2.90850 | -154.01957 | 36912 ft | 492 kts | 43° |
| 2026-05-07 05:52 | 2.95791 | -153.97284 | 36911 ft | 491 kts | 43° |
| 2026-05-07 05:53 | 3.00757 | -153.92587 | 36911 ft | 489 kts | 43° |
| 2026-05-07 05:53 | 3.05677 | -153.87933 | 36896 ft | 489 kts | 43° |
| 2026-05-07 05:54 | 3.10614 | -153.83263 | 36895 ft | 488 kts | 43° |
| 2026-05-07 05:54 | 3.15549 | -153.78594 | 36893 ft | 487 kts | 43° |
| 2026-05-07 05:55 | 3.20472 | -153.73934 | 36906 ft | 486 kts | 43° |
| 2026-05-07 05:55 | 3.25402 | -153.69268 | 36890 ft | 487 kts | 43° |
| 2026-05-07 05:56 | 3.30308 | -153.64625 | 36866 ft | 488 kts | 43° |
| 2026-05-07 05:56 | 3.35252 | -153.59945 | 36861 ft | 489 kts | 43° |
| 2026-05-07 05:57 | 3.40169 | -153.55289 | 36893 ft | 490 kts | 43° |
| 2026-05-07 05:57 | 3.45108 | -153.50611 | 36901 ft | 490 kts | 42° |
| 2026-05-07 05:58 | 3.50068 | -153.45914 | 36905 ft | 491 kts | 42° |
| 2026-05-07 05:58 | 3.55045 | -153.41199 | 36904 ft | 491 kts | 42° |
| 2026-05-07 05:59 | 3.59977 | -153.36527 | 36904 ft | 491 kts | 42° |
| 2026-05-07 05:59 | 3.64947 | -153.31817 | 36907 ft | 490 kts | 42° |
| 2026-05-07 06:00 | 3.69882 | -153.27140 | 36906 ft | 490 kts | 42° |
| 2026-05-07 06:00 | 3.74844 | -153.22436 | 36908 ft | 490 kts | 42° |
| 2026-05-07 06:01 | 3.79798 | -153.17741 | 36902 ft | 490 kts | 42° |
| 2026-05-07 06:01 | 3.84727 | -153.13067 | 36899 ft | 489 kts | 42° |
| 2026-05-07 06:02 | 3.89675 | -153.08374 | 36906 ft | 488 kts | 42° |
| 2026-05-07 06:02 | 3.94612 | -153.03692 | 36899 ft | 488 kts | 42° |
| 2026-05-07 06:03 | 3.99518 | -152.99037 | 36895 ft | 488 kts | 42° |
| 2026-05-07 06:03 | 4.04454 | -152.94354 | 36896 ft | 487 kts | 42° |
| 2026-05-07 06:04 | 4.09372 | -152.89687 | 36870 ft | 488 kts | 42° |
| 2026-05-07 06:04 | 4.14270 | -152.85038 | 36887 ft | 488 kts | 42° |
| 2026-05-07 06:05 | 4.19218 | -152.80340 | 36865 ft | 490 kts | 42° |
| 2026-05-07 06:05 | 4.24149 | -152.75659 | 36888 ft | 491 kts | 42° |
| 2026-05-07 06:06 | 4.29124 | -152.70933 | 36902 ft | 492 kts | 42° |
| 2026-05-07 06:06 | 4.34099 | -152.66208 | 36908 ft | 492 kts | 42° |
| 2026-05-07 06:07 | 4.39050 | -152.61504 | 36908 ft | 493 kts | 42° |
| 2026-05-07 06:07 | 4.44034 | -152.56769 | 36923 ft | 492 kts | 43° |
| 2026-05-07 06:08 | 4.48978 | -152.52069 | 36919 ft | 491 kts | 43° |
| 2026-05-07 06:08 | 4.53943 | -152.47349 | 36914 ft | 490 kts | 43° |
| 2026-05-07 06:09 | 4.58900 | -152.42637 | 36903 ft | 490 kts | 43° |
| 2026-05-07 06:09 | 4.63840 | -152.37938 | 36897 ft | 489 kts | 43° |
| 2026-05-07 06:10 | 4.68763 | -152.33256 | 36893 ft | 488 kts | 43° |
| 2026-05-07 06:10 | 4.73661 | -152.28596 | 36893 ft | 488 kts | 43° |
| 2026-05-07 06:11 | 4.78598 | -152.23898 | 36893 ft | 488 kts | 43° |
| 2026-05-07 06:11 | 4.83508 | -152.19224 | 36890 ft | 488 kts | 43° |
| 2026-05-07 06:12 | 4.88451 | -152.14519 | 36895 ft | 489 kts | 43° |
| 2026-05-07 06:12 | 4.93361 | -152.09843 | 36897 ft | 489 kts | 43° |
| 2026-05-07 06:13 | 4.98310 | -152.05130 | 36901 ft | 489 kts | 43° |
| 2026-05-07 06:13 | 5.03233 | -152.00441 | 36901 ft | 490 kts | 43° |
| 2026-05-07 06:14 | 5.08182 | -151.95725 | 36889 ft | 490 kts | 42° |
| 2026-05-07 06:14 | 5.13111 | -151.91028 | 36893 ft | 491 kts | 43° |
| 2026-05-07 06:15 | 5.18088 | -151.86285 | 36897 ft | 492 kts | 43° |
| 2026-05-07 06:15 | 5.23030 | -151.81572 | 36906 ft | 492 kts | 43° |
| 2026-05-07 06:16 | 5.28012 | -151.76821 | 36911 ft | 493 kts | 43° |
| 2026-05-07 06:16 | 5.32953 | -151.72109 | 36911 ft | 493 kts | 43° |
| 2026-05-07 06:17 | 5.37918 | -151.67371 | 36902 ft | 493 kts | 42° |
| 2026-05-07 06:17 | 5.42902 | -151.62615 | 36906 ft | 492 kts | 42° |
| 2026-05-07 06:18 | 5.47844 | -151.57897 | 36911 ft | 492 kts | 42° |
| 2026-05-07 06:18 | 5.52811 | -151.53155 | 36904 ft | 492 kts | 43° |
| 2026-05-07 06:19 | 5.57781 | -151.48408 | 36897 ft | 492 kts | 43° |
| 2026-05-07 06:19 | 5.62750 | -151.43661 | 36903 ft | 492 kts | 42° |
| 2026-05-07 06:20 | 5.67670 | -151.38960 | 36903 ft | 492 kts | 43° |
| 2026-05-07 06:20 | 5.72627 | -151.34223 | 36910 ft | 491 kts | 43° |
| 2026-05-07 06:21 | 5.77587 | -151.29481 | 36902 ft | 491 kts | 43° |
| 2026-05-07 06:21 | 5.82549 | -151.24736 | 36911 ft | 491 kts | 43° |
| 2026-05-07 06:22 | 5.87472 | -151.20028 | 36907 ft | 492 kts | 43° |
| 2026-05-07 06:22 | 5.94920 | -151.12902 | 36913 ft | 492 kts | 43° |
| 2026-05-07 06:23 | 5.99898 | -151.08138 | 36900 ft | 493 kts | 43° |
| 2026-05-07 06:23 | 6.04847 | -151.03400 | 36902 ft | 494 kts | 43° |
| 2026-05-07 06:24 | 6.09833 | -150.98625 | 36916 ft | 494 kts | 43° |
| 2026-05-07 06:24 | 6.14781 | -150.93886 | 36919 ft | 494 kts | 43° |
| 2026-05-07 06:25 | 6.19758 | -150.89117 | 36923 ft | 494 kts | 43° |
| 2026-05-07 06:25 | 6.24736 | -150.84347 | 36923 ft | 494 kts | 43° |
| 2026-05-07 06:26 | 6.29721 | -150.79568 | 36920 ft | 494 kts | 43° |
| 2026-05-07 06:26 | 6.34663 | -150.74828 | 36898 ft | 495 kts | 43° |
| 2026-05-07 06:27 | 6.39656 | -150.70040 | 36922 ft | 494 kts | 43° |
| 2026-05-07 06:27 | 6.44607 | -150.65289 | 36925 ft | 494 kts | 43° |
| 2026-05-07 06:28 | 6.49603 | -150.60495 | 36918 ft | 494 kts | 43° |
| 2026-05-07 06:28 | 6.54554 | -150.55742 | 36920 ft | 494 kts | 43° |
| 2026-05-07 06:29 | 6.59530 | -150.50964 | 36916 ft | 494 kts | 43° |
| 2026-05-07 06:29 | 6.64512 | -150.46178 | 36908 ft | 494 kts | 43° |
| 2026-05-07 06:30 | 6.69461 | -150.41424 | 36912 ft | 495 kts | 43° |
| 2026-05-07 06:30 | 6.74439 | -150.36638 | 36917 ft | 495 kts | 43° |
| 2026-05-07 06:31 | 6.79437 | -150.31833 | 36919 ft | 496 kts | 43° |
| 2026-05-07 06:31 | 6.84399 | -150.27061 | 36922 ft | 496 kts | 43° |
| 2026-05-07 06:32 | 6.89406 | -150.22245 | 36926 ft | 496 kts | 43° |
| 2026-05-07 06:32 | 6.94407 | -150.17434 | 36925 ft | 496 kts | 43° |
| 2026-05-07 06:33 | 6.99417 | -150.12613 | 36917 ft | 497 kts | 43° |
| 2026-05-07 06:33 | 7.04394 | -150.07821 | 36923 ft | 498 kts | 43° |
| 2026-05-07 06:34 | 7.09413 | -150.02988 | 36921 ft | 498 kts | 43° |
| 2026-05-07 06:34 | 7.14403 | -149.98181 | 36931 ft | 499 kts | 43° |
| 2026-05-07 06:35 | 7.19403 | -149.93359 | 36931 ft | 499 kts | 43° |
| 2026-05-07 06:35 | 7.24422 | -149.88522 | 36921 ft | 499 kts | 43° |
| 2026-05-07 06:36 | 7.29461 | -149.83667 | 36923 ft | 500 kts | 43° |
| 2026-05-07 06:36 | 7.34464 | -149.78846 | 36927 ft | 501 kts | 42° |
| 2026-05-07 06:37 | 7.39509 | -149.73982 | 36930 ft | 501 kts | 43° |
| 2026-05-07 06:37 | 7.44528 | -149.69142 | 36933 ft | 501 kts | 43° |
| 2026-05-07 06:38 | 7.49578 | -149.64269 | 36939 ft | 502 kts | 42° |
| 2026-05-07 06:38 | 7.54624 | -149.59399 | 36923 ft | 502 kts | 42° |
| 2026-05-07 06:39 | 7.59657 | -149.54539 | 36919 ft | 504 kts | 42° |
| 2026-05-07 06:39 | 7.64727 | -149.49641 | 36926 ft | 505 kts | 42° |
| 2026-05-07 06:40 | 7.69794 | -149.44745 | 36933 ft | 506 kts | 42° |
| 2026-05-07 06:40 | 7.74899 | -149.39811 | 36941 ft | 507 kts | 42° |
| 2026-05-07 06:41 | 7.79977 | -149.34900 | 36946 ft | 508 kts | 42° |
| 2026-05-07 06:41 | 7.84221 | -149.30795 | 36946 ft | 508 kts | 42° |
| 2026-05-07 06:42 | 7.89340 | -149.25843 | 36927 ft | 509 kts | 42° |
| 2026-05-07 06:42 | 7.94462 | -149.20885 | 36929 ft | 510 kts | 42° |
| 2026-05-07 06:43 | 7.99560 | -149.15949 | 36943 ft | 511 kts | 42° |
| 2026-05-07 06:43 | 8.04701 | -149.10969 | 36948 ft | 511 kts | 42° |
| 2026-05-07 06:44 | 8.09803 | -149.06025 | 36948 ft | 511 kts | 42° |
| 2026-05-07 06:44 | 8.14933 | -149.01054 | 36933 ft | 511 kts | 43° |
| 2026-05-07 06:45 | 8.20076 | -148.96065 | 36939 ft | 512 kts | 43° |
| 2026-05-07 06:45 | 8.25206 | -148.91089 | 36940 ft | 513 kts | 43° |
| 2026-05-07 06:46 | 8.30357 | -148.86090 | 36947 ft | 513 kts | 43° |
| 2026-05-07 06:46 | 8.35472 | -148.81124 | 36950 ft | 514 kts | 43° |
| 2026-05-07 06:47 | 8.40642 | -148.76103 | 36955 ft | 514 kts | 43° |
| 2026-05-07 06:47 | 8.45770 | -148.71120 | 36948 ft | 515 kts | 43° |
| 2026-05-07 06:48 | 8.50941 | -148.66094 | 36939 ft | 515 kts | 43° |
| 2026-05-07 06:48 | 8.56124 | -148.61055 | 36954 ft | 515 kts | 43° |
| 2026-05-07 06:49 | 8.61264 | -148.56055 | 36955 ft | 516 kts | 43° |
| 2026-05-07 06:49 | 8.66440 | -148.51018 | 36956 ft | 516 kts | 43° |
| 2026-05-07 06:50 | 8.71589 | -148.46006 | 36971 ft | 515 kts | 43° |
| 2026-05-07 06:50 | 8.76770 | -148.40960 | 36943 ft | 516 kts | 43° |
| 2026-05-07 06:51 | 8.81940 | -148.35923 | 36959 ft | 516 kts | 43° |
| 2026-05-07 06:51 | 8.87081 | -148.30912 | 36954 ft | 516 kts | 43° |
| 2026-05-07 06:52 | 8.92267 | -148.25855 | 36958 ft | 516 kts | 43° |
| 2026-05-07 06:52 | 8.97411 | -148.20837 | 36963 ft | 516 kts | 43° |
| 2026-05-07 06:53 | 9.02570 | -148.15802 | 36959 ft | 516 kts | 43° |
| 2026-05-07 06:53 | 9.07746 | -148.10748 | 36957 ft | 516 kts | 43° |
| 2026-05-07 06:54 | 9.12925 | -148.05690 | 36959 ft | 517 kts | 43° |
| 2026-05-07 06:54 | 9.18102 | -148.00633 | 36962 ft | 517 kts | 43° |
| 2026-05-07 06:55 | 9.23281 | -147.95569 | 36962 ft | 517 kts | 43° |
| 2026-05-07 06:55 | 9.28450 | -147.90513 | 36975 ft | 517 kts | 42° |
| 2026-05-07 06:56 | 9.33624 | -147.85452 | 36962 ft | 518 kts | 42° |
| 2026-05-07 06:56 | 9.38781 | -147.80405 | 36965 ft | 518 kts | 42° |
| 2026-05-07 06:57 | 9.43975 | -147.75319 | 36963 ft | 518 kts | 42° |
| 2026-05-07 06:57 | 9.49168 | -147.70230 | 36969 ft | 519 kts | 42° |
| 2026-05-07 06:58 | 9.54329 | -147.65172 | 36969 ft | 519 kts | 42° |
| 2026-05-07 06:58 | 9.59518 | -147.60084 | 36998 ft | 518 kts | 42° |
| 2026-05-07 06:59 | 9.64702 | -147.54999 | 36959 ft | 519 kts | 43° |
| 2026-05-07 06:59 | 9.69877 | -147.49920 | 36961 ft | 519 kts | 43° |
| 2026-05-07 07:00 | 9.75071 | -147.44819 | 36965 ft | 520 kts | 43° |
| 2026-05-07 07:00 | 9.80273 | -147.39709 | 36970 ft | 520 kts | 43° |
| 2026-05-07 07:01 | 9.85482 | -147.34590 | 36990 ft | 520 kts | 43° |
| 2026-05-07 07:01 | 9.90661 | -147.29498 | 36985 ft | 519 kts | 43° |
| 2026-05-07 07:02 | 9.95852 | -147.24392 | 36978 ft | 519 kts | 43° |
| 2026-05-07 07:02 | 10.01030 | -147.19295 | 36973 ft | 518 kts | 43° |
| 2026-05-07 07:03 | 10.06212 | -147.14193 | 36969 ft | 517 kts | 43° |
| 2026-05-07 07:03 | 10.11356 | -147.09125 | 36976 ft | 517 kts | 42° |
| 2026-05-07 07:04 | 10.16483 | -147.04072 | 36975 ft | 516 kts | 42° |
| 2026-05-07 07:04 | 10.21642 | -146.98986 | 36967 ft | 516 kts | 42° |
| 2026-05-07 07:05 | 10.26804 | -146.93894 | 36968 ft | 516 kts | 42° |
| 2026-05-07 07:05 | 10.31960 | -146.88805 | 36972 ft | 517 kts | 42° |
| 2026-05-07 07:06 | 10.37075 | -146.83754 | 36983 ft | 517 kts | 42° |
| 2026-05-07 07:06 | 10.42245 | -146.78647 | 36977 ft | 517 kts | 42° |
| 2026-05-07 07:07 | 10.47382 | -146.73570 | 36955 ft | 519 kts | 42° |
| 2026-05-07 07:07 | 10.52570 | -146.68440 | 36967 ft | 520 kts | 42° |
| 2026-05-07 07:08 | 10.57770 | -146.63295 | 36982 ft | 521 kts | 42° |
| 2026-05-07 07:08 | 10.62979 | -146.58139 | 36990 ft | 522 kts | 42° |
| 2026-05-07 07:09 | 10.68168 | -146.52999 | 37003 ft | 522 kts | 42° |
| 2026-05-07 07:09 | 10.73366 | -146.47848 | 36975 ft | 523 kts | 42° |
| 2026-05-07 07:10 | 10.78588 | -146.42672 | 36991 ft | 523 kts | 42° |
| 2026-05-07 07:10 | 10.83768 | -146.37534 | 36990 ft | 524 kts | 42° |
| 2026-05-07 07:11 | 10.88998 | -146.32344 | 36977 ft | 524 kts | 42° |
| 2026-05-07 07:11 | 10.94188 | -146.27191 | 36976 ft | 524 kts | 42° |
| 2026-05-07 07:12 | 10.99404 | -146.22009 | 36964 ft | 524 kts | 42° |
| 2026-05-07 07:12 | 11.04637 | -146.16808 | 36973 ft | 525 kts | 42° |
| 2026-05-07 07:13 | 11.09852 | -146.11622 | 36979 ft | 526 kts | 42° |
| 2026-05-07 07:13 | 11.15098 | -146.06402 | 37003 ft | 526 kts | 42° |
| 2026-05-07 07:14 | 11.20313 | -146.01211 | 37005 ft | 527 kts | 42° |
| 2026-05-07 07:14 | 11.25565 | -145.95980 | 37013 ft | 527 kts | 42° |
| 2026-05-07 07:15 | 11.30821 | -145.90742 | 36985 ft | 528 kts | 42° |
| 2026-05-07 07:15 | 11.36076 | -145.85502 | 36997 ft | 529 kts | 42° |
| 2026-05-07 07:16 | 11.41344 | -145.80246 | 37011 ft | 529 kts | 42° |
| 2026-05-07 07:16 | 11.46572 | -145.75027 | 37021 ft | 529 kts | 42° |
| 2026-05-07 07:17 | 11.51858 | -145.69749 | 37020 ft | 530 kts | 42° |
| 2026-05-07 07:17 | 11.57128 | -145.64482 | 36999 ft | 530 kts | 42° |
| 2026-05-07 07:18 | 11.62367 | -145.59244 | 37001 ft | 530 kts | 42° |
| 2026-05-07 07:18 | 11.67633 | -145.53976 | 36997 ft | 530 kts | 42° |
| 2026-05-07 07:19 | 11.72886 | -145.48718 | 36996 ft | 530 kts | 42° |
| 2026-05-07 07:19 | 11.78122 | -145.43473 | 36993 ft | 530 kts | 42° |
| 2026-05-07 07:20 | 11.83386 | -145.38198 | 37003 ft | 530 kts | 41° |
| 2026-05-07 07:20 | 11.88653 | -145.32917 | 36997 ft | 529 kts | 41° |
| 2026-05-07 07:21 | 11.93876 | -145.27676 | 36997 ft | 529 kts | 41° |
| 2026-05-07 07:21 | 11.99137 | -145.22396 | 36997 ft | 529 kts | 42° |
| 2026-05-07 07:22 | 12.04364 | -145.17146 | 36997 ft | 529 kts | 42° |
| 2026-05-07 07:22 | 12.09624 | -145.11860 | 36998 ft | 529 kts | 42° |
| 2026-05-07 07:23 | 12.14885 | -145.06569 | 37002 ft | 529 kts | 42° |
| 2026-05-07 07:23 | 12.20138 | -145.01283 | 37001 ft | 530 kts | 42° |
| 2026-05-07 07:24 | 12.25369 | -144.96017 | 37016 ft | 529 kts | 42° |
| 2026-05-07 07:24 | 12.30618 | -144.90729 | 37011 ft | 529 kts | 42° |
| 2026-05-07 07:25 | 12.38451 | -144.82834 | 37008 ft | 530 kts | 42° |
| 2026-05-07 07:26 | 12.43717 | -144.77522 | 37009 ft | 530 kts | 42° |
| 2026-05-07 07:26 | 12.48927 | -144.72262 | 37013 ft | 529 kts | 42° |
| 2026-05-07 07:27 | 12.54170 | -144.66965 | 37015 ft | 529 kts | 42° |
| 2026-05-07 07:27 | 12.59422 | -144.61657 | 37012 ft | 529 kts | 42° |
| 2026-05-07 07:28 | 12.64637 | -144.56383 | 37014 ft | 529 kts | 42° |
| 2026-05-07 07:28 | 12.68995 | -144.51973 | 37008 ft | 529 kts | 42° |
| 2026-05-07 07:29 | 12.74229 | -144.46675 | 37015 ft | 530 kts | 43° |
| 2026-05-07 07:29 | 12.77717 | -144.43144 | 37514 ft | 530 kts | 42° |
| 2026-05-07 07:29 | 12.79482 | -144.41356 | 37833 ft | 529 kts | 42° |
| 2026-05-07 07:29 | 12.82105 | -144.38698 | 38283 ft | 528 kts | 42° |
| 2026-05-07 07:30 | 12.84681 | -144.36087 | 38686 ft | 527 kts | 42° |
| 2026-05-07 07:30 | 12.87277 | -144.33456 | 38960 ft | 528 kts | 42° |
| 2026-05-07 07:30 | 12.89895 | -144.30802 | 39011 ft | 524 kts | 42° |
| 2026-05-07 07:31 | 12.95036 | -144.25585 | 39016 ft | 522 kts | 42° |
| 2026-05-07 07:31 | 13.00202 | -144.20332 | 39016 ft | 523 kts | 42° |
| 2026-05-07 07:32 | 13.05364 | -144.15069 | 39018 ft | 523 kts | 42° |
| 2026-05-07 07:32 | 13.10486 | -144.09854 | 39022 ft | 522 kts | 42° |
| 2026-05-07 07:33 | 13.15650 | -144.04597 | 39017 ft | 521 kts | 42° |
| 2026-05-07 07:33 | 13.20813 | -143.99338 | 39011 ft | 521 kts | 42° |
| 2026-05-07 07:34 | 13.25958 | -143.94093 | 39022 ft | 520 kts | 41° |
| 2026-05-07 07:34 | 13.31065 | -143.88884 | 39018 ft | 520 kts | 42° |
| 2026-05-07 07:35 | 13.36191 | -143.83650 | 39012 ft | 520 kts | 41° |
| 2026-05-07 07:35 | 13.41304 | -143.78427 | 39017 ft | 520 kts | 41° |
| 2026-05-07 07:36 | 13.46441 | -143.73175 | 39020 ft | 520 kts | 41° |
| 2026-05-07 07:36 | 13.51576 | -143.67922 | 39031 ft | 520 kts | 41° |
| 2026-05-07 07:37 | 13.56691 | -143.62686 | 39034 ft | 520 kts | 41° |
| 2026-05-07 07:37 | 13.61821 | -143.57432 | 39030 ft | 520 kts | 41° |
| 2026-05-07 07:38 | 13.66926 | -143.52199 | 39037 ft | 520 kts | 41° |
| 2026-05-07 07:38 | 13.72057 | -143.46937 | 39035 ft | 521 kts | 41° |
| 2026-05-07 07:39 | 13.77199 | -143.41659 | 39036 ft | 521 kts | 41° |
| 2026-05-07 07:39 | 13.82302 | -143.36419 | 39036 ft | 521 kts | 41° |
| 2026-05-07 07:40 | 13.87443 | -143.31137 | 39024 ft | 522 kts | 41° |
| 2026-05-07 07:40 | 13.92562 | -143.25872 | 39032 ft | 522 kts | 41° |
| 2026-05-07 07:41 | 13.97691 | -143.20593 | 39046 ft | 522 kts | 41° |
| 2026-05-07 07:41 | 14.02833 | -143.15299 | 39044 ft | 521 kts | 41° |
| 2026-05-07 07:42 | 14.07939 | -143.10037 | 39050 ft | 521 kts | 41° |
| 2026-05-07 07:42 | 14.13086 | -143.04731 | 39039 ft | 522 kts | 41° |
| 2026-05-07 07:43 | 14.18229 | -142.99425 | 39036 ft | 522 kts | 41° |
| 2026-05-07 07:43 | 14.23334 | -142.94153 | 39047 ft | 522 kts | 41° |
| 2026-05-07 07:44 | 14.28462 | -142.88856 | 39042 ft | 522 kts | 41° |
| 2026-05-07 07:44 | 14.33603 | -142.83540 | 39045 ft | 523 kts | 41° |
| 2026-05-07 07:45 | 14.38712 | -142.78255 | 39032 ft | 523 kts | 41° |
| 2026-05-07 07:45 | 14.43863 | -142.72921 | 39058 ft | 523 kts | 41° |
| 2026-05-07 07:46 | 14.48975 | -142.67625 | 39056 ft | 522 kts | 41° |
| 2026-05-07 07:46 | 14.54102 | -142.62309 | 39057 ft | 522 kts | 41° |
| 2026-05-07 07:47 | 14.59204 | -142.57015 | 39041 ft | 522 kts | 41° |
| 2026-05-07 07:47 | 14.64330 | -142.51695 | 39046 ft | 522 kts | 41° |
| 2026-05-07 07:48 | 14.69468 | -142.46357 | 39051 ft | 522 kts | 41° |
| 2026-05-07 07:48 | 14.74562 | -142.41061 | 39056 ft | 522 kts | 41° |
| 2026-05-07 07:49 | 14.79688 | -142.35727 | 39053 ft | 522 kts | 41° |
| 2026-05-07 07:49 | 14.84811 | -142.30394 | 39039 ft | 523 kts | 40° |
| 2026-05-07 07:50 | 14.89925 | -142.25066 | 39056 ft | 524 kts | 41° |
| 2026-05-07 07:50 | 14.95081 | -142.19690 | 39065 ft | 524 kts | 41° |
| 2026-05-07 07:51 | 15.00178 | -142.14371 | 39060 ft | 524 kts | 41° |
| 2026-05-07 07:51 | 15.05317 | -142.09005 | 39065 ft | 524 kts | 41° |
| 2026-05-07 07:52 | 15.10417 | -142.03676 | 39071 ft | 523 kts | 41° |
| 2026-05-07 07:52 | 15.15529 | -141.98330 | 39085 ft | 521 kts | 41° |
| 2026-05-07 07:53 | 15.20628 | -141.92994 | 39074 ft | 520 kts | 41° |
| 2026-05-07 07:53 | 15.25687 | -141.87697 | 39066 ft | 518 kts | 41° |
| 2026-05-07 07:54 | 15.30767 | -141.82374 | 39043 ft | 518 kts | 41° |
| 2026-05-07 07:54 | 15.35794 | -141.77101 | 39040 ft | 518 kts | 41° |
| 2026-05-07 07:55 | 15.40870 | -141.71775 | 39037 ft | 518 kts | 41° |
| 2026-05-07 07:55 | 15.45937 | -141.66453 | 39044 ft | 518 kts | 41° |
| 2026-05-07 07:56 | 15.50994 | -141.61138 | 39028 ft | 520 kts | 41° |
| 2026-05-07 07:56 | 15.56089 | -141.55780 | 39045 ft | 521 kts | 41° |
| 2026-05-07 07:57 | 15.61161 | -141.50441 | 39070 ft | 522 kts | 41° |
| 2026-05-07 07:57 | 15.66277 | -141.45051 | 39076 ft | 524 kts | 41° |
| 2026-05-07 07:58 | 15.71374 | -141.39678 | 39086 ft | 525 kts | 41° |
| 2026-05-07 07:58 | 15.76498 | -141.34272 | 39066 ft | 526 kts | 41° |
| 2026-05-07 07:59 | 15.81637 | -141.28847 | 39075 ft | 527 kts | 41° |
| 2026-05-07 07:59 | 15.86767 | -141.23425 | 39086 ft | 527 kts | 41° |
| 2026-05-07 08:00 | 15.91916 | -141.17981 | 39081 ft | 527 kts | 41° |
| 2026-05-07 08:00 | 15.97034 | -141.12564 | 39081 ft | 527 kts | 41° |
| 2026-05-07 08:01 | 16.02167 | -141.07128 | 39080 ft | 527 kts | 41° |
| 2026-05-07 08:01 | 16.07316 | -141.01671 | 39079 ft | 527 kts | 41° |
| 2026-05-07 08:02 | 16.12429 | -140.96248 | 39079 ft | 527 kts | 41° |
| 2026-05-07 08:02 | 16.17575 | -140.90785 | 39100 ft | 527 kts | 41° |
| 2026-05-07 08:03 | 16.22702 | -140.85337 | 39087 ft | 525 kts | 41° |
| 2026-05-07 08:03 | 16.27782 | -140.79935 | 39084 ft | 524 kts | 41° |
| 2026-05-07 08:04 | 16.32877 | -140.74514 | 39082 ft | 523 kts | 41° |
| 2026-05-07 08:04 | 16.37968 | -140.69092 | 39078 ft | 523 kts | 41° |
| 2026-05-07 08:05 | 16.43031 | -140.63697 | 39067 ft | 523 kts | 41° |
| 2026-05-07 08:05 | 16.48120 | -140.58269 | 39072 ft | 523 kts | 41° |
| 2026-05-07 08:06 | 16.53220 | -140.52825 | 39079 ft | 524 kts | 41° |
| 2026-05-07 08:06 | 16.58322 | -140.47375 | 39085 ft | 524 kts | 41° |
| 2026-05-07 08:07 | 16.63392 | -140.41954 | 39048 ft | 526 kts | 41° |
| 2026-05-07 08:07 | 16.68481 | -140.36509 | 39069 ft | 528 kts | 41° |
| 2026-05-07 08:08 | 16.73619 | -140.31006 | 39085 ft | 529 kts | 41° |
| 2026-05-07 08:08 | 16.78764 | -140.25492 | 39100 ft | 530 kts | 41° |
| 2026-05-07 08:09 | 16.83923 | -140.19957 | 39096 ft | 532 kts | 41° |
| 2026-05-07 08:09 | 16.89056 | -140.14446 | 39108 ft | 532 kts | 41° |
| 2026-05-07 08:10 | 16.94193 | -140.08927 | 39111 ft | 532 kts | 41° |
| 2026-05-07 08:10 | 16.99364 | -140.03365 | 39111 ft | 532 kts | 41° |
| 2026-05-07 08:11 | 17.04526 | -139.97809 | 39123 ft | 531 kts | 41° |
| 2026-05-07 08:11 | 17.09639 | -139.92300 | 39131 ft | 529 kts | 41° |
| 2026-05-07 08:12 | 17.14760 | -139.86780 | 39114 ft | 527 kts | 41° |
| 2026-05-07 08:12 | 17.19865 | -139.81271 | 39105 ft | 526 kts | 41° |
| 2026-05-07 08:13 | 17.24926 | -139.75806 | 39093 ft | 524 kts | 41° |
| 2026-05-07 08:13 | 17.30004 | -139.70318 | 39094 ft | 523 kts | 41° |
| 2026-05-07 08:14 | 17.35025 | -139.64886 | 39084 ft | 522 kts | 41° |
| 2026-05-07 08:14 | 17.40074 | -139.59420 | 39079 ft | 521 kts | 41° |
| 2026-05-07 08:15 | 17.45130 | -139.53942 | 39078 ft | 521 kts | 41° |
| 2026-05-07 08:15 | 17.50171 | -139.48476 | 39102 ft | 521 kts | 41° |
| 2026-05-07 08:16 | 17.55177 | -139.43042 | 39100 ft | 521 kts | 41° |
| 2026-05-07 08:16 | 17.60208 | -139.37577 | 39100 ft | 520 kts | 41° |
| 2026-05-07 08:17 | 17.65223 | -139.32124 | 39101 ft | 521 kts | 41° |
| 2026-05-07 08:17 | 17.69423 | -139.27555 | 39105 ft | 521 kts | 41° |
| 2026-05-07 08:18 | 17.75266 | -139.21191 | 39105 ft | 521 kts | 41° |
| 2026-05-07 08:18 | 17.80296 | -139.15708 | 39108 ft | 521 kts | 41° |
| 2026-05-07 08:19 | 17.84508 | -139.11113 | 39107 ft | 521 kts | 41° |
| 2026-05-07 08:19 | 17.89524 | -139.05637 | 39095 ft | 522 kts | 41° |
| 2026-05-07 08:20 | 17.94551 | -139.00144 | 39111 ft | 523 kts | 41° |
| 2026-05-07 08:20 | 17.99602 | -138.94618 | 39112 ft | 524 kts | 41° |
| 2026-05-07 08:21 | 18.04633 | -138.89110 | 39118 ft | 524 kts | 41° |
| 2026-05-07 08:21 | 18.09690 | -138.83568 | 39099 ft | 525 kts | 41° |
| 2026-05-07 08:22 | 18.14729 | -138.78043 | 39107 ft | 526 kts | 41° |
| 2026-05-07 08:22 | 18.19804 | -138.72472 | 39118 ft | 527 kts | 41° |
| 2026-05-07 08:23 | 18.24891 | -138.66883 | 39123 ft | 528 kts | 41° |
| 2026-05-07 08:23 | 18.29950 | -138.61320 | 39123 ft | 529 kts | 41° |
| 2026-05-07 08:24 | 18.35030 | -138.55729 | 39122 ft | 529 kts | 41° |
| 2026-05-07 08:24 | 18.40096 | -138.50149 | 39126 ft | 529 kts | 41° |
| 2026-05-07 08:25 | 18.45199 | -138.44521 | 39133 ft | 529 kts | 41° |
| 2026-05-07 08:25 | 18.50291 | -138.38901 | 39127 ft | 529 kts | 41° |
| 2026-05-07 08:26 | 18.57888 | -138.30509 | 39126 ft | 529 kts | 41° |
| 2026-05-07 08:26 | 18.62966 | -138.24894 | 39126 ft | 528 kts | 41° |
| 2026-05-07 08:27 | 18.68004 | -138.19320 | 39141 ft | 528 kts | 41° |
| 2026-05-07 08:27 | 18.73081 | -138.13698 | 39123 ft | 528 kts | 41° |
| 2026-05-07 08:28 | 18.78124 | -138.08108 | 39126 ft | 528 kts | 41° |
| 2026-05-07 08:28 | 18.83189 | -138.02479 | 39127 ft | 528 kts | 41° |
| 2026-05-07 08:29 | 18.88216 | -137.96853 | 39119 ft | 528 kts | 41° |
| 2026-05-07 08:29 | 18.93273 | -137.91208 | 39135 ft | 528 kts | 41° |
| 2026-05-07 08:30 | 18.98313 | -137.85584 | 39136 ft | 528 kts | 41° |
| 2026-05-07 08:30 | 19.03366 | -137.79943 | 39140 ft | 528 kts | 41° |
| 2026-05-07 08:31 | 19.08392 | -137.74325 | 39122 ft | 529 kts | 41° |
| 2026-05-07 08:31 | 19.13463 | -137.68653 | 39122 ft | 530 kts | 41° |
| 2026-05-07 08:32 | 19.18520 | -137.62988 | 39127 ft | 530 kts | 41° |
| 2026-05-07 08:32 | 19.23572 | -137.57322 | 39131 ft | 531 kts | 41° |
| 2026-05-07 08:33 | 19.28644 | -137.51627 | 39144 ft | 531 kts | 41° |
| 2026-05-07 08:33 | 19.33680 | -137.45969 | 39150 ft | 532 kts | 41° |
| 2026-05-07 08:34 | 19.38766 | -137.40247 | 39159 ft | 532 kts | 41° |
| 2026-05-07 08:34 | 19.43842 | -137.34532 | 39151 ft | 532 kts | 41° |
| 2026-05-07 08:35 | 19.48916 | -137.28812 | 39144 ft | 532 kts | 41° |
| 2026-05-07 08:35 | 19.53957 | -137.23126 | 39147 ft | 532 kts | 41° |
| 2026-05-07 08:36 | 19.59036 | -137.17391 | 39148 ft | 532 kts | 41° |
| 2026-05-07 08:36 | 19.64096 | -137.11671 | 39153 ft | 532 kts | 40° |
| 2026-05-07 08:37 | 19.69134 | -137.05970 | 39154 ft | 532 kts | 40° |
| 2026-05-07 08:37 | 19.74212 | -137.00219 | 39151 ft | 532 kts | 40° |
| 2026-05-07 08:38 | 19.79272 | -136.94483 | 39143 ft | 531 kts | 40° |
| 2026-05-07 08:38 | 19.84290 | -136.88786 | 39165 ft | 531 kts | 40° |
| 2026-05-07 08:39 | 19.89342 | -136.83048 | 39168 ft | 530 kts | 40° |
| 2026-05-07 08:39 | 19.94375 | -136.77324 | 39157 ft | 529 kts | 40° |
| 2026-05-07 08:40 | 19.99370 | -136.71639 | 39151 ft | 528 kts | 40° |
| 2026-05-07 08:40 | 20.04386 | -136.65924 | 39142 ft | 528 kts | 39° |
| 2026-05-07 08:41 | 20.09406 | -136.60199 | 39137 ft | 527 kts | 39° |
| 2026-05-07 08:41 | 20.14377 | -136.54524 | 39140 ft | 527 kts | 39° |
| 2026-05-07 08:42 | 20.19380 | -136.48806 | 39156 ft | 527 kts | 39° |
| 2026-05-07 08:42 | 20.24354 | -136.43117 | 39155 ft | 527 kts | 39° |
| 2026-05-07 08:43 | 20.29363 | -136.37381 | 39155 ft | 527 kts | 39° |
| 2026-05-07 08:43 | 20.34324 | -136.31695 | 39158 ft | 527 kts | 39° |
| 2026-05-07 08:44 | 20.39291 | -136.25995 | 39161 ft | 528 kts | 39° |
| 2026-05-07 08:44 | 20.44311 | -136.20229 | 39161 ft | 528 kts | 39° |
| 2026-05-07 08:45 | 20.49314 | -136.14476 | 39165 ft | 528 kts | 39° |
| 2026-05-07 08:45 | 20.54283 | -136.08757 | 39188 ft | 528 kts | 39° |
| 2026-05-07 08:46 | 20.59291 | -136.02987 | 39158 ft | 529 kts | 39° |
| 2026-05-07 08:46 | 20.64304 | -135.97205 | 39163 ft | 530 kts | 39° |
| 2026-05-07 08:47 | 20.69278 | -135.91462 | 39166 ft | 530 kts | 39° |
| 2026-05-07 08:47 | 20.74293 | -135.85665 | 39163 ft | 530 kts | 39° |
| 2026-05-07 08:48 | 20.79279 | -135.79897 | 39169 ft | 531 kts | 39° |
| 2026-05-07 08:48 | 20.84298 | -135.74084 | 39184 ft | 531 kts | 39° |
| 2026-05-07 08:49 | 20.89313 | -135.68269 | 39206 ft | 531 kts | 39° |
| 2026-05-07 08:49 | 20.94311 | -135.62469 | 39180 ft | 532 kts | 39° |
| 2026-05-07 08:50 | 20.99335 | -135.56631 | 39176 ft | 532 kts | 39° |
| 2026-05-07 08:50 | 21.04347 | -135.50800 | 39185 ft | 532 kts | 39° |
| 2026-05-07 08:51 | 21.09332 | -135.44996 | 39181 ft | 532 kts | 39° |
| 2026-05-07 08:51 | 21.14353 | -135.39143 | 39187 ft | 532 kts | 39° |
| 2026-05-07 08:52 | 21.19357 | -135.33304 | 39188 ft | 532 kts | 39° |
| 2026-05-07 08:52 | 21.24333 | -135.27492 | 39193 ft | 532 kts | 39° |
| 2026-05-07 08:53 | 21.29341 | -135.21635 | 39183 ft | 532 kts | 39° |
| 2026-05-07 08:53 | 21.34289 | -135.15842 | 39183 ft | 532 kts | 39° |
| 2026-05-07 08:54 | 21.39285 | -135.09987 | 39184 ft | 532 kts | 39° |
| 2026-05-07 08:54 | 21.44284 | -135.04124 | 39193 ft | 532 kts | 40° |
| 2026-05-07 08:55 | 21.49292 | -134.98241 | 39195 ft | 531 kts | 40° |
| 2026-05-07 08:55 | 21.54260 | -134.92399 | 39192 ft | 531 kts | 40° |
| 2026-05-07 08:56 | 21.59246 | -134.86529 | 39187 ft | 530 kts | 40° |
| 2026-05-07 08:56 | 21.64192 | -134.80701 | 39184 ft | 530 kts | 40° |
| 2026-05-07 08:57 | 21.69143 | -134.74860 | 39193 ft | 529 kts | 40° |
| 2026-05-07 08:57 | 21.74088 | -134.69021 | 39191 ft | 529 kts | 41° |
| 2026-05-07 08:58 | 21.79047 | -134.63159 | 39186 ft | 528 kts | 41° |
| 2026-05-07 08:58 | 21.83990 | -134.57308 | 39188 ft | 527 kts | 41° |
| 2026-05-07 08:59 | 21.88886 | -134.51507 | 39190 ft | 527 kts | 41° |
| 2026-05-07 08:59 | 21.93818 | -134.45657 | 39183 ft | 526 kts | 41° |
| 2026-05-07 09:00 | 21.98747 | -134.39803 | 39189 ft | 526 kts | 41° |
| 2026-05-07 09:00 | 22.03649 | -134.33975 | 39190 ft | 525 kts | 41° |
| 2026-05-07 09:01 | 22.08572 | -134.28116 | 39195 ft | 525 kts | 42° |
| 2026-05-07 09:01 | 22.13437 | -134.22320 | 39207 ft | 524 kts | 42° |
| 2026-05-07 09:02 | 22.18326 | -134.16487 | 39201 ft | 523 kts | 43° |
| 2026-05-07 09:02 | 22.23209 | -134.10656 | 39196 ft | 522 kts | 43° |
| 2026-05-07 09:03 | 22.28068 | -134.04847 | 39180 ft | 521 kts | 43° |
| 2026-05-07 09:03 | 22.32829 | -133.99149 | 39177 ft | 520 kts | 43° |
| 2026-05-07 09:04 | 22.37731 | -133.93275 | 39185 ft | 520 kts | 43° |
| 2026-05-07 09:04 | 22.42586 | -133.87453 | 39183 ft | 520 kts | 43° |
| 2026-05-07 09:05 | 22.47427 | -133.81639 | 39194 ft | 521 kts | 43° |
| 2026-05-07 09:05 | 22.52258 | -133.75831 | 39212 ft | 520 kts | 43° |
| 2026-05-07 09:06 | 22.57092 | -133.70012 | 39206 ft | 520 kts | 44° |
| 2026-05-07 09:06 | 22.61106 | -133.65176 | 39199 ft | 519 kts | 44° |
| 2026-05-07 09:07 | 22.65925 | -133.59364 | 39201 ft | 519 kts | 44° |
| 2026-05-07 09:07 | 22.70715 | -133.53580 | 39197 ft | 518 kts | 44° |
| 2026-05-07 09:08 | 22.75526 | -133.47764 | 39191 ft | 518 kts | 44° |
| 2026-05-07 09:08 | 22.80338 | -133.41941 | 39199 ft | 517 kts | 44° |
| 2026-05-07 09:09 | 22.85145 | -133.36117 | 39194 ft | 517 kts | 44° |
| 2026-05-07 09:09 | 22.89915 | -133.30331 | 39209 ft | 517 kts | 44° |
| 2026-05-07 09:10 | 22.94704 | -133.24514 | 39204 ft | 516 kts | 44° |
| 2026-05-07 09:10 | 22.99495 | -133.18689 | 39208 ft | 516 kts | 44° |
| 2026-05-07 09:11 | 23.04244 | -133.12908 | 39202 ft | 515 kts | 44° |
| 2026-05-07 09:11 | 23.09025 | -133.07083 | 39196 ft | 514 kts | 44° |
| 2026-05-07 09:12 | 23.13780 | -133.01281 | 39204 ft | 514 kts | 44° |
| 2026-05-07 09:12 | 23.18519 | -132.95493 | 39196 ft | 513 kts | 44° |
| 2026-05-07 09:13 | 23.23272 | -132.89682 | 39198 ft | 513 kts | 44° |
| 2026-05-07 09:13 | 23.28012 | -132.83879 | 39214 ft | 513 kts | 45° |
| 2026-05-07 09:14 | 23.32708 | -132.78123 | 39213 ft | 512 kts | 45° |
| 2026-05-07 09:14 | 23.37456 | -132.72296 | 39204 ft | 511 kts | 45° |
| 2026-05-07 09:15 | 23.42141 | -132.66541 | 39211 ft | 510 kts | 45° |
| 2026-05-07 09:15 | 23.46859 | -132.60739 | 39209 ft | 510 kts | 45° |
| 2026-05-07 09:16 | 23.51569 | -132.54938 | 39203 ft | 509 kts | 45° |
| 2026-05-07 09:16 | 23.56243 | -132.49176 | 39199 ft | 509 kts | 45° |
| 2026-05-07 09:17 | 23.60947 | -132.43370 | 39199 ft | 509 kts | 45° |
| 2026-05-07 09:17 | 23.65609 | -132.37610 | 39207 ft | 509 kts | 45° |
| 2026-05-07 09:18 | 23.70296 | -132.31810 | 39208 ft | 509 kts | 45° |
| 2026-05-07 09:18 | 23.74954 | -132.26041 | 39206 ft | 508 kts | 45° |
| 2026-05-07 09:19 | 23.79634 | -132.20237 | 39209 ft | 508 kts | 45° |
| 2026-05-07 09:19 | 23.84306 | -132.14436 | 39218 ft | 508 kts | 45° |
| 2026-05-07 09:20 | 23.88954 | -132.08659 | 39211 ft | 508 kts | 45° |
| 2026-05-07 09:20 | 23.93621 | -132.02851 | 39206 ft | 508 kts | 45° |
| 2026-05-07 09:21 | 23.98287 | -131.97037 | 39212 ft | 508 kts | 45° |
| 2026-05-07 09:21 | 24.02922 | -131.91255 | 39213 ft | 507 kts | 45° |
| 2026-05-07 09:22 | 24.07582 | -131.85435 | 39220 ft | 507 kts | 45° |
| 2026-05-07 09:22 | 24.12228 | -131.79625 | 39221 ft | 506 kts | 45° |
| 2026-05-07 09:23 | 24.16850 | -131.73839 | 39221 ft | 505 kts | 45° |
| 2026-05-07 09:23 | 24.21483 | -131.68033 | 39215 ft | 505 kts | 45° |
| 2026-05-07 09:24 | 24.26078 | -131.62271 | 39210 ft | 504 kts | 45° |
| 2026-05-07 09:24 | 24.30702 | -131.56466 | 39209 ft | 504 kts | 45° |
| 2026-05-07 09:25 | 24.35290 | -131.50700 | 39211 ft | 503 kts | 45° |
| 2026-05-07 09:25 | 24.39898 | -131.44901 | 39209 ft | 503 kts | 45° |
| 2026-05-07 09:26 | 24.44498 | -131.39101 | 39207 ft | 503 kts | 45° |
| 2026-05-07 09:26 | 24.49064 | -131.33314 | 39215 ft | 503 kts | 45° |
| 2026-05-07 09:27 | 24.53659 | -131.27509 | 39230 ft | 502 kts | 46° |
| 2026-05-07 09:28 | 24.60515 | -131.18855 | 39221 ft | 501 kts | 46° |
| 2026-05-07 09:28 | 24.65094 | -131.13068 | 39221 ft | 500 kts | 46° |
| 2026-05-07 09:29 | 24.69630 | -131.07327 | 39216 ft | 500 kts | 46° |
| 2026-05-07 09:29 | 24.74197 | -131.01541 | 39209 ft | 499 kts | 46° |
| 2026-05-07 09:30 | 24.78756 | -130.95756 | 39212 ft | 499 kts | 46° |
| 2026-05-07 09:30 | 24.83280 | -130.90007 | 39217 ft | 499 kts | 46° |
| 2026-05-07 09:31 | 24.87837 | -130.84206 | 39214 ft | 499 kts | 46° |
| 2026-05-07 09:31 | 24.92381 | -130.78415 | 39225 ft | 499 kts | 46° |
| 2026-05-07 09:32 | 24.96899 | -130.72651 | 39220 ft | 498 kts | 46° |
| 2026-05-07 09:32 | 25.01410 | -130.66888 | 39216 ft | 498 kts | 46° |
| 2026-05-07 09:33 | 25.05936 | -130.61098 | 39218 ft | 497 kts | 46° |
| 2026-05-07 09:33 | 25.10465 | -130.55298 | 39210 ft | 497 kts | 46° |
| 2026-05-07 09:34 | 25.14958 | -130.49537 | 39207 ft | 497 kts | 46° |
| 2026-05-07 09:34 | 25.19474 | -130.43739 | 39219 ft | 497 kts | 46° |
| 2026-05-07 09:35 | 25.23986 | -130.37940 | 39218 ft | 497 kts | 46° |
| 2026-05-07 09:35 | 25.28464 | -130.32176 | 39216 ft | 496 kts | 46° |
| 2026-05-07 09:36 | 25.32961 | -130.26381 | 39224 ft | 496 kts | 46° |
| 2026-05-07 09:36 | 25.37426 | -130.20620 | 39224 ft | 495 kts | 46° |
| 2026-05-07 09:37 | 25.41900 | -130.14840 | 39225 ft | 494 kts | 46° |
| 2026-05-07 09:37 | 25.46379 | -130.09047 | 39221 ft | 494 kts | 46° |
| 2026-05-07 09:38 | 25.50820 | -130.03295 | 39211 ft | 493 kts | 46° |
| 2026-05-07 09:38 | 25.55279 | -129.97513 | 39223 ft | 492 kts | 46° |
| 2026-05-07 09:39 | 25.59730 | -129.91735 | 39210 ft | 492 kts | 46° |
| 2026-05-07 09:39 | 25.64175 | -129.85957 | 39208 ft | 492 kts | 46° |
| 2026-05-07 09:40 | 25.68597 | -129.80202 | 39219 ft | 492 kts | 46° |
| 2026-05-07 09:40 | 25.73051 | -129.74398 | 39226 ft | 492 kts | 46° |
| 2026-05-07 09:41 | 25.77461 | -129.68642 | 39230 ft | 492 kts | 46° |
| 2026-05-07 09:41 | 25.81894 | -129.62851 | 39224 ft | 491 kts | 46° |
| 2026-05-07 09:42 | 25.86326 | -129.57053 | 39234 ft | 491 kts | 46° |
| 2026-05-07 09:42 | 25.90708 | -129.51313 | 39226 ft | 490 kts | 46° |
| 2026-05-07 09:43 | 25.95127 | -129.45519 | 39227 ft | 490 kts | 46° |
| 2026-05-07 09:43 | 25.99512 | -129.39760 | 39223 ft | 489 kts | 46° |
| 2026-05-07 09:44 | 26.03924 | -129.33959 | 39224 ft | 489 kts | 46° |
| 2026-05-07 09:44 | 26.08291 | -129.28210 | 39223 ft | 489 kts | 46° |
| 2026-05-07 09:45 | 26.12680 | -129.22425 | 39220 ft | 489 kts | 46° |
| 2026-05-07 09:45 | 26.17072 | -129.16628 | 39239 ft | 488 kts | 46° |
| 2026-05-07 09:46 | 26.21422 | -129.10879 | 39242 ft | 487 kts | 46° |
| 2026-05-07 09:46 | 26.25784 | -129.05108 | 39225 ft | 486 kts | 46° |
| 2026-05-07 09:47 | 26.30118 | -128.99365 | 39220 ft | 485 kts | 46° |
| 2026-05-07 09:47 | 26.34468 | -128.93594 | 39216 ft | 485 kts | 46° |
| 2026-05-07 09:48 | 26.38821 | -128.87813 | 39227 ft | 485 kts | 46° |
| 2026-05-07 09:48 | 26.43141 | -128.82068 | 39217 ft | 485 kts | 46° |
| 2026-05-07 09:49 | 26.47485 | -128.76283 | 39218 ft | 486 kts | 46° |
| 2026-05-07 09:49 | 26.51797 | -128.70533 | 39224 ft | 486 kts | 46° |
| 2026-05-07 09:50 | 26.56144 | -128.64730 | 39243 ft | 486 kts | 46° |
| 2026-05-07 09:50 | 26.60488 | -128.58921 | 39240 ft | 486 kts | 46° |
| 2026-05-07 09:51 | 26.64825 | -128.53116 | 39241 ft | 486 kts | 46° |
| 2026-05-07 09:51 | 26.69136 | -128.47338 | 39239 ft | 486 kts | 46° |
| 2026-05-07 09:52 | 26.72743 | -128.42498 | 39218 ft | 487 kts | 46° |
| 2026-05-07 09:52 | 26.77086 | -128.36663 | 39220 ft | 487 kts | 46° |
| 2026-05-07 09:53 | 26.81400 | -128.30859 | 39217 ft | 487 kts | 46° |
| 2026-05-07 09:53 | 26.85735 | -128.25018 | 39228 ft | 487 kts | 46° |
| 2026-05-07 09:54 | 26.90064 | -128.19179 | 39219 ft | 487 kts | 46° |
| 2026-05-07 09:54 | 26.94371 | -128.13363 | 39223 ft | 487 kts | 46° |
| 2026-05-07 09:55 | 26.98702 | -128.07506 | 39230 ft | 488 kts | 47° |
| 2026-05-07 09:55 | 27.03005 | -128.01677 | 39230 ft | 487 kts | 47° |
| 2026-05-07 09:56 | 27.07338 | -127.95801 | 39227 ft | 487 kts | 47° |
| 2026-05-07 09:56 | 27.11663 | -127.89929 | 39227 ft | 487 kts | 47° |
| 2026-05-07 09:57 | 27.15960 | -127.84086 | 39226 ft | 487 kts | 47° |
| 2026-05-07 09:57 | 27.20284 | -127.78199 | 39229 ft | 487 kts | 47° |
| 2026-05-07 09:58 | 27.24595 | -127.72322 | 39229 ft | 487 kts | 47° |
| 2026-05-07 09:58 | 27.28880 | -127.66473 | 39229 ft | 487 kts | 47° |
| 2026-05-07 09:59 | 27.33185 | -127.60587 | 39225 ft | 487 kts | 48° |
| 2026-05-07 09:59 | 27.37468 | -127.54724 | 39224 ft | 487 kts | 48° |
| 2026-05-07 10:00 | 27.41767 | -127.48832 | 39229 ft | 487 kts | 48° |
| 2026-05-07 10:00 | 27.46065 | -127.42933 | 39236 ft | 486 kts | 48° |
| 2026-05-07 10:01 | 27.50359 | -127.37031 | 39235 ft | 486 kts | 48° |
| 2026-05-07 10:01 | 27.54646 | -127.31130 | 39230 ft | 486 kts | 48° |
| 2026-05-07 10:02 | 27.58907 | -127.25259 | 39232 ft | 486 kts | 48° |
| 2026-05-07 10:02 | 27.63175 | -127.19369 | 39231 ft | 486 kts | 48° |
| 2026-05-07 10:03 | 27.67459 | -127.13448 | 39230 ft | 485 kts | 48° |
| 2026-05-07 10:03 | 27.71705 | -127.07573 | 39228 ft | 485 kts | 48° |
| 2026-05-07 10:04 | 27.75970 | -127.01663 | 39225 ft | 485 kts | 48° |
| 2026-05-07 10:04 | 27.80241 | -126.95737 | 39227 ft | 485 kts | 48° |
| 2026-05-07 10:05 | 27.84477 | -126.89850 | 39228 ft | 485 kts | 48° |
| 2026-05-07 10:05 | 27.88756 | -126.83897 | 39228 ft | 485 kts | 49° |
| 2026-05-07 10:06 | 27.92987 | -126.78001 | 39228 ft | 485 kts | 49° |
| 2026-05-07 10:06 | 27.97240 | -126.72067 | 39225 ft | 485 kts | 48° |
| 2026-05-07 10:07 | 28.01495 | -126.66123 | 39223 ft | 485 kts | 48° |
| 2026-05-07 10:07 | 28.05723 | -126.60207 | 39225 ft | 486 kts | 48° |
| 2026-05-07 10:08 | 28.09979 | -126.54244 | 39224 ft | 486 kts | 49° |
| 2026-05-07 10:08 | 28.14233 | -126.48276 | 39227 ft | 486 kts | 48° |
| 2026-05-07 10:09 | 28.18466 | -126.42328 | 39220 ft | 486 kts | 49° |
| 2026-05-07 10:09 | 28.22718 | -126.36345 | 39229 ft | 486 kts | 49° |
| 2026-05-07 10:10 | 28.26936 | -126.30402 | 39230 ft | 486 kts | 49° |
| 2026-05-07 10:10 | 28.31187 | -126.24403 | 39229 ft | 486 kts | 49° |
| 2026-05-07 10:11 | 28.35423 | -126.18418 | 39231 ft | 485 kts | 49° |
| 2026-05-07 10:11 | 28.39628 | -126.12468 | 39226 ft | 485 kts | 49° |
| 2026-05-07 10:12 | 28.43860 | -126.06472 | 39220 ft | 485 kts | 49° |
| 2026-05-07 10:12 | 28.48077 | -126.00487 | 39220 ft | 485 kts | 49° |
| 2026-05-07 10:13 | 28.52286 | -125.94507 | 39219 ft | 484 kts | 49° |
| 2026-05-07 10:13 | 28.56472 | -125.88550 | 39217 ft | 484 kts | 49° |
| 2026-05-07 10:14 | 28.60684 | -125.82549 | 39218 ft | 485 kts | 49° |
| 2026-05-07 10:14 | 28.64896 | -125.76539 | 39220 ft | 485 kts | 49° |
| 2026-05-07 10:15 | 28.69101 | -125.70528 | 39233 ft | 484 kts | 49° |
| 2026-05-07 10:15 | 28.73282 | -125.64545 | 39229 ft | 484 kts | 49° |
| 2026-05-07 10:16 | 28.77478 | -125.58531 | 39224 ft | 483 kts | 49° |
| 2026-05-07 10:16 | 28.81636 | -125.52563 | 39220 ft | 483 kts | 49° |
| 2026-05-07 10:17 | 28.85817 | -125.46554 | 39226 ft | 483 kts | 49° |
| 2026-05-07 10:17 | 28.89966 | -125.40582 | 39221 ft | 482 kts | 49° |
| 2026-05-07 10:18 | 28.94149 | -125.34552 | 39218 ft | 482 kts | 49° |
| 2026-05-07 10:18 | 28.98313 | -125.28541 | 39217 ft | 482 kts | 49° |
| 2026-05-07 10:19 | 29.02451 | -125.22560 | 39198 ft | 482 kts | 50° |
| 2026-05-07 10:19 | 29.06610 | -125.16538 | 39216 ft | 482 kts | 50° |
| 2026-05-07 10:20 | 29.10738 | -125.10554 | 39224 ft | 481 kts | 50° |
| 2026-05-07 10:20 | 29.14877 | -125.04545 | 39223 ft | 481 kts | 50° |
| 2026-05-07 10:21 | 29.19026 | -124.98511 | 39226 ft | 481 kts | 50° |
| 2026-05-07 10:21 | 29.23137 | -124.92525 | 39227 ft | 480 kts | 50° |
| 2026-05-07 10:22 | 29.27271 | -124.86496 | 39226 ft | 480 kts | 50° |
| 2026-05-07 10:22 | 29.31401 | -124.80465 | 39215 ft | 480 kts | 50° |
| 2026-05-07 10:23 | 29.35496 | -124.74475 | 39214 ft | 480 kts | 50° |
| 2026-05-07 10:23 | 29.39618 | -124.68439 | 39217 ft | 480 kts | 50° |
| 2026-05-07 10:24 | 29.43731 | -124.62405 | 39215 ft | 480 kts | 50° |
| 2026-05-07 10:24 | 29.47821 | -124.56397 | 39212 ft | 479 kts | 50° |
| 2026-05-07 10:25 | 29.51929 | -124.50353 | 39217 ft | 479 kts | 50° |
| 2026-05-07 10:25 | 29.56002 | -124.44352 | 39240 ft | 477 kts | 51° |
| 2026-05-07 10:26 | 29.60079 | -124.38337 | 39221 ft | 476 kts | 51° |
| 2026-05-07 10:26 | 29.64152 | -124.32318 | 39220 ft | 475 kts | 51° |
| 2026-05-07 10:27 | 29.68180 | -124.26357 | 39208 ft | 474 kts | 51° |
| 2026-05-07 10:27 | 29.72230 | -124.20356 | 39218 ft | 474 kts | 51° |
| 2026-05-07 10:28 | 29.76272 | -124.14356 | 39209 ft | 473 kts | 51° |
| 2026-05-07 10:28 | 29.80281 | -124.08397 | 39202 ft | 472 kts | 51° |
| 2026-05-07 10:29 | 29.84300 | -124.02414 | 39200 ft | 472 kts | 51° |
| 2026-05-07 10:29 | 29.88326 | -123.96413 | 39196 ft | 472 kts | 51° |
| 2026-05-07 10:30 | 29.94340 | -123.87431 | 39215 ft | 471 kts | 52° |
| 2026-05-07 10:30 | 29.98332 | -123.81457 | 39212 ft | 471 kts | 52° |
| 2026-05-07 10:31 | 30.02338 | -123.75454 | 39206 ft | 471 kts | 52° |
| 2026-05-07 10:31 | 30.06306 | -123.69499 | 39202 ft | 470 kts | 52° |
| 2026-05-07 10:32 | 30.10299 | -123.63497 | 39204 ft | 470 kts | 52° |
| 2026-05-07 10:32 | 30.14264 | -123.57529 | 39203 ft | 471 kts | 52° |
| 2026-05-07 10:33 | 30.18262 | -123.51502 | 39205 ft | 471 kts | 52° |
| 2026-05-07 10:33 | 30.22230 | -123.45512 | 39206 ft | 471 kts | 52° |
| 2026-05-07 10:34 | 30.26214 | -123.39488 | 39204 ft | 471 kts | 52° |
| 2026-05-07 10:34 | 30.30206 | -123.33448 | 39202 ft | 471 kts | 52° |
| 2026-05-07 10:35 | 30.34190 | -123.27413 | 39204 ft | 471 kts | 52° |
| 2026-05-07 10:35 | 30.38141 | -123.21418 | 39205 ft | 471 kts | 52° |
| 2026-05-07 10:36 | 30.42119 | -123.15374 | 39210 ft | 471 kts | 52° |
| 2026-05-07 10:36 | 30.46091 | -123.09330 | 39207 ft | 471 kts | 52° |
| 2026-05-07 10:37 | 30.50037 | -123.03315 | 39201 ft | 470 kts | 52° |
| 2026-05-07 10:37 | 30.53961 | -122.97215 | 39197 ft | 470 kts | 53° |
| 2026-05-07 10:38 | 30.57891 | -122.91214 | 39196 ft | 470 kts | 51° |
| 2026-05-07 10:38 | 30.61882 | -122.85197 | 39198 ft | 470 kts | 52° |
| 2026-05-07 10:39 | 30.65846 | -122.79158 | 39191 ft | 470 kts | 52° |
| 2026-05-07 10:39 | 30.69790 | -122.73122 | 39191 ft | 470 kts | 52° |
| 2026-05-07 10:40 | 30.73082 | -122.68078 | 39193 ft | 470 kts | 52° |
| 2026-05-07 10:40 | 30.77035 | -122.62010 | 39194 ft | 470 kts | 52° |
| 2026-05-07 10:41 | 30.80965 | -122.55969 | 39197 ft | 470 kts | 52° |
| 2026-05-07 10:41 | 30.84914 | -122.49891 | 39191 ft | 470 kts | 52° |
| 2026-05-07 10:42 | 30.88860 | -122.43807 | 39193 ft | 470 kts | 52° |
| 2026-05-07 10:42 | 30.92769 | -122.37771 | 39187 ft | 470 kts | 52° |
| 2026-05-07 10:43 | 30.96706 | -122.31682 | 39187 ft | 470 kts | 52° |
| 2026-05-07 10:43 | 31.00641 | -122.25586 | 39188 ft | 469 kts | 52° |
| 2026-05-07 10:44 | 31.04540 | -122.19537 | 39180 ft | 469 kts | 52° |
| 2026-05-07 10:44 | 31.08476 | -122.13422 | 39180 ft | 469 kts | 52° |
| 2026-05-07 10:45 | 31.12401 | -122.07315 | 39188 ft | 469 kts | 52° |
| 2026-05-07 10:45 | 31.16295 | -122.01244 | 39186 ft | 469 kts | 52° |
| 2026-05-07 10:46 | 31.20216 | -121.95124 | 39180 ft | 469 kts | 52° |
| 2026-05-07 10:46 | 31.24097 | -121.89056 | 39179 ft | 469 kts | 52° |
| 2026-05-07 10:47 | 31.28010 | -121.82930 | 39172 ft | 469 kts | 52° |
| 2026-05-07 10:47 | 31.31895 | -121.76835 | 39179 ft | 469 kts | 52° |
| 2026-05-07 10:48 | 31.35789 | -121.70719 | 39167 ft | 468 kts | 52° |
| 2026-05-07 10:48 | 31.39665 | -121.64621 | 39161 ft | 468 kts | 52° |
| 2026-05-07 10:49 | 31.43558 | -121.58486 | 39171 ft | 468 kts | 52° |
| 2026-05-07 10:49 | 31.47438 | -121.52363 | 39157 ft | 468 kts | 52° |
| 2026-05-07 10:50 | 31.51323 | -121.46221 | 39162 ft | 468 kts | 52° |
| 2026-05-07 10:50 | 31.54990 | -121.39966 | 39162 ft | 468 kts | 58° |
| 2026-05-07 10:51 | 31.57873 | -121.33110 | 39158 ft | 470 kts | 66° |
| 2026-05-07 10:51 | 31.60315 | -121.26021 | 39164 ft | 470 kts | 66° |
| 2026-05-07 10:52 | 31.62793 | -121.18917 | 39167 ft | 470 kts | 66° |
| 2026-05-07 10:52 | 31.65257 | -121.11803 | 39165 ft | 470 kts | 66° |
| 2026-05-07 10:53 | 31.67714 | -121.04681 | 39154 ft | 470 kts | 66° |
| 2026-05-07 10:53 | 31.70150 | -120.97600 | 39157 ft | 470 kts | 66° |
| 2026-05-07 10:54 | 31.72597 | -120.90475 | 39164 ft | 470 kts | 66° |
| 2026-05-07 10:54 | 31.75040 | -120.83344 | 39152 ft | 469 kts | 66° |
| 2026-05-07 10:55 | 31.77464 | -120.76257 | 39148 ft | 469 kts | 66° |
| 2026-05-07 10:55 | 31.79896 | -120.69128 | 39146 ft | 469 kts | 66° |
| 2026-05-07 10:56 | 31.82304 | -120.62055 | 39135 ft | 469 kts | 66° |
| 2026-05-07 10:56 | 31.84741 | -120.54882 | 39136 ft | 469 kts | 66° |
| 2026-05-07 10:57 | 31.87147 | -120.47784 | 39136 ft | 469 kts | 66° |
| 2026-05-07 10:57 | 31.89566 | -120.40632 | 39139 ft | 469 kts | 66° |
| 2026-05-07 10:58 | 31.91973 | -120.33540 | 39143 ft | 469 kts | 64° |
| 2026-05-07 10:58 | 31.95053 | -120.26801 | 39140 ft | 466 kts | 54° |
| 2026-05-07 10:59 | 31.99021 | -120.20794 | 39135 ft | 463 kts | 46° |
| 2026-05-07 10:59 | 32.03411 | -120.15288 | 39127 ft | 463 kts | 46° |
| 2026-05-07 11:00 | 32.07800 | -120.09728 | 39130 ft | 463 kts | 45° |
| 2026-05-07 11:00 | 32.12197 | -120.04160 | 39130 ft | 463 kts | 45° |
| 2026-05-07 11:01 | 32.16560 | -119.98634 | 39125 ft | 463 kts | 45° |
| 2026-05-07 11:01 | 32.20954 | -119.93060 | 39123 ft | 463 kts | 45° |
| 2026-05-07 11:02 | 32.25324 | -119.87510 | 39123 ft | 463 kts | 45° |
| 2026-05-07 11:02 | 32.29711 | -119.81927 | 39127 ft | 463 kts | 45° |
| 2026-05-07 11:03 | 32.34091 | -119.76346 | 38954 ft | 459 kts | 45° |
| 2026-05-07 11:03 | 32.36238 | -119.73605 | 38705 ft | 455 kts | 45° |
| 2026-05-07 11:03 | 32.38391 | -119.70856 | 38427 ft | 455 kts | 45° |
| 2026-05-07 11:04 | 32.40542 | -119.68109 | 38148 ft | 455 kts | 45° |
| 2026-05-07 11:04 | 32.42695 | -119.65356 | 37883 ft | 456 kts | 45° |
| 2026-05-07 11:04 | 32.44849 | -119.62601 | 37613 ft | 456 kts | 45° |
| 2026-05-07 11:04 | 32.47009 | -119.59836 | 37355 ft | 457 kts | 45° |
| 2026-05-07 11:05 | 32.49171 | -119.57065 | 37083 ft | 458 kts | 45° |
| 2026-05-07 11:05 | 32.51330 | -119.54296 | 36828 ft | 459 kts | 45° |
| 2026-05-07 11:05 | 32.53477 | -119.51539 | 36587 ft | 458 kts | 45° |
| 2026-05-07 11:05 | 32.55644 | -119.48756 | 36334 ft | 457 kts | 45° |
| 2026-05-07 11:06 | 32.57793 | -119.45993 | 36077 ft | 459 kts | 45° |
| 2026-05-07 11:06 | 32.59969 | -119.43194 | 35827 ft | 461 kts | 45° |
| 2026-05-07 11:06 | 32.62148 | -119.40390 | 35398 ft | 461 kts | 45° |
| 2026-05-07 11:06 | 32.64329 | -119.37580 | 34573 ft | 464 kts | 45° |
| 2026-05-07 11:07 | 32.66498 | -119.34784 | 33417 ft | 470 kts | 45° |
| 2026-05-07 11:07 | 32.68728 | -119.31909 | 32368 ft | 474 kts | 46° |
| 2026-05-07 11:07 | 32.70950 | -119.29037 | 31678 ft | 469 kts | 46° |
| 2026-05-07 11:07 | 32.73136 | -119.26209 | 31192 ft | 459 kts | 46° |
| 2026-05-07 11:08 | 32.75295 | -119.23415 | 30483 ft | 456 kts | 46° |
| 2026-05-07 11:08 | 32.77430 | -119.20651 | 29735 ft | 454 kts | 46° |
| 2026-05-07 11:08 | 32.79532 | -119.17928 | 29065 ft | 448 kts | 46° |
| 2026-05-07 11:08 | 32.81623 | -119.15217 | 28392 ft | 443 kts | 46° |
| 2026-05-07 11:09 | 32.83695 | -119.12528 | 27716 ft | 438 kts | 46° |
| 2026-05-07 11:09 | 32.85739 | -119.09875 | 27050 ft | 433 kts | 46° |
| 2026-05-07 11:09 | 32.87767 | -119.07240 | 26395 ft | 429 kts | 46° |
| 2026-05-07 11:09 | 32.89776 | -119.04627 | 25732 ft | 425 kts | 46° |
| 2026-05-07 11:10 | 32.91768 | -119.02035 | 25079 ft | 422 kts | 46° |
| 2026-05-07 11:10 | 32.93742 | -118.99465 | 24424 ft | 419 kts | 46° |
| 2026-05-07 11:10 | 32.95701 | -118.96913 | 23777 ft | 416 kts | 46° |
| 2026-05-07 11:10 | 32.97624 | -118.94405 | 23066 ft | 412 kts | 46° |
| 2026-05-07 11:11 | 32.99553 | -118.91887 | 22410 ft | 407 kts | 46° |
| 2026-05-07 11:11 | 33.01449 | -118.89412 | 21765 ft | 402 kts | 46° |
| 2026-05-07 11:11 | 33.03320 | -118.86967 | 21128 ft | 397 kts | 46° |
| 2026-05-07 11:11 | 33.05170 | -118.84548 | 20499 ft | 393 kts | 46° |
| 2026-05-07 11:12 | 33.06984 | -118.82174 | 19861 ft | 389 kts | 46° |
| 2026-05-07 11:12 | 33.08799 | -118.79798 | 19236 ft | 386 kts | 46° |
| 2026-05-07 11:12 | 33.10609 | -118.77427 | 18599 ft | 383 kts | 46° |
| 2026-05-07 11:12 | 33.12398 | -118.75082 | 17908 ft | 380 kts | 46° |
| 2026-05-07 11:13 | 33.14148 | -118.72786 | 17293 ft | 376 kts | 47° |
| 2026-05-07 11:13 | 33.15903 | -118.70483 | 16538 ft | 374 kts | 47° |
| 2026-05-07 11:13 | 33.17637 | -118.68205 | 16108 ft | 366 kts | 47° |
| 2026-05-07 11:13 | 33.19303 | -118.66007 | 15992 ft | 350 kts | 47° |
| 2026-05-07 11:14 | 33.20865 | -118.63841 | 15832 ft | 338 kts | 49° |
| 2026-05-07 11:14 | 33.22376 | -118.61690 | 15781 ft | 339 kts | 49° |
| 2026-05-07 11:14 | 33.23881 | -118.59548 | 15701 ft | 339 kts | 49° |
| 2026-05-07 11:14 | 33.25424 | -118.57364 | 15601 ft | 338 kts | 49° |
| 2026-05-07 11:15 | 33.26918 | -118.55258 | 15515 ft | 338 kts | 49° |
| 2026-05-07 11:15 | 33.28448 | -118.53103 | 15435 ft | 338 kts | 49° |
| 2026-05-07 11:15 | 33.29966 | -118.50967 | 15350 ft | 337 kts | 49° |
| 2026-05-07 11:15 | 33.31485 | -118.48829 | 15257 ft | 337 kts | 49° |
| 2026-05-07 11:16 | 33.32956 | -118.46639 | 15172 ft | 337 kts | 57° |
| 2026-05-07 11:16 | 33.33887 | -118.44066 | 15092 ft | 339 kts | 75° |
| 2026-05-07 11:16 | 33.34091 | -118.41245 | 14994 ft | 342 kts | 92° |
| 2026-05-07 11:16 | 33.33895 | -118.38406 | 14907 ft | 342 kts | 92° |
| 2026-05-07 11:17 | 33.33732 | -118.35628 | 14827 ft | 340 kts | 91° |
| 2026-05-07 11:17 | 33.33579 | -118.32807 | 14729 ft | 337 kts | 91° |
| 2026-05-07 11:17 | 33.33428 | -118.30006 | 14624 ft | 337 kts | 91° |
| 2026-05-07 11:17 | 33.33277 | -118.27243 | 14561 ft | 337 kts | 92° |
| 2026-05-07 11:18 | 33.33121 | -118.24435 | 14467 ft | 337 kts | 91° |
| 2026-05-07 11:18 | 33.32964 | -118.21649 | 14377 ft | 336 kts | 91° |
| 2026-05-07 11:18 | 33.32805 | -118.18857 | 14280 ft | 336 kts | 92° |
| 2026-05-07 11:18 | 33.32646 | -118.16070 | 14200 ft | 335 kts | 92° |
| 2026-05-07 11:19 | 33.32488 | -118.13282 | 14114 ft | 334 kts | 91° |
| 2026-05-07 11:19 | 33.32719 | -118.10539 | 14017 ft | 331 kts | 72° |
| 2026-05-07 11:19 | 33.33712 | -118.08103 | 13826 ft | 330 kts | 53° |
| 2026-05-07 11:19 | 33.35271 | -118.06078 | 13349 ft | 331 kts | 46° |
| 2026-05-07 11:20 | 33.36876 | -118.04137 | 12885 ft | 325 kts | 46° |
| 2026-05-07 11:20 | 33.38453 | -118.02198 | 12419 ft | 322 kts | 47° |
| 2026-05-07 11:20 | 33.40213 | -118.00555 | 12069 ft | 322 kts | 28° |
| 2026-05-07 11:20 | 33.42355 | -117.99792 | 11735 ft | 326 kts | 7° |
| 2026-05-07 11:21 | 33.44564 | -117.99864 | 11644 ft | 315 kts | 360° |
| 2026-05-07 11:21 | 33.46711 | -117.99991 | 11520 ft | 302 kts | 1° |
| 2026-05-07 11:21 | 33.48782 | -118.00087 | 11247 ft | 295 kts | 1° |
| 2026-05-07 11:21 | 33.50837 | -118.00174 | 10825 ft | 296 kts | 1° |
| 2026-05-07 11:22 | 33.52886 | -118.00265 | 10488 ft | 292 kts | 1° |
| 2026-05-07 11:22 | 33.54912 | -118.00358 | 10186 ft | 289 kts | 1° |
| 2026-05-07 11:22 | 33.56921 | -118.00453 | 9873 ft | 288 kts | 1° |
| 2026-05-07 11:22 | 33.58894 | -118.00546 | 9535 ft | 287 kts | 1° |
| 2026-05-07 11:23 | 33.60884 | -118.00636 | 9196 ft | 285 kts | 1° |
| 2026-05-07 11:23 | 33.62868 | -118.00723 | 8875 ft | 284 kts | 0° |
| 2026-05-07 11:23 | 33.64863 | -118.00892 | 8254 ft | 292 kts | 353° |
| 2026-05-07 11:23 | 33.66853 | -118.01499 | 7809 ft | 293 kts | 344° |
| 2026-05-07 11:24 | 33.68775 | -118.02202 | 7697 ft | 283 kts | 345° |
| 2026-05-07 11:24 | 33.70640 | -118.02845 | 7639 ft | 279 kts | 346° |
| 2026-05-07 11:24 | 33.72489 | -118.03474 | 7600 ft | 271 kts | 346° |
| 2026-05-07 11:24 | 33.74275 | -118.04083 | 7506 ft | 260 kts | 346° |
| 2026-05-07 11:25 | 33.75980 | -118.04668 | 7388 ft | 250 kts | 346° |
| 2026-05-07 11:25 | 33.77595 | -118.05224 | 7306 ft | 240 kts | 346° |
| 2026-05-07 11:25 | 33.79180 | -118.05865 | 6915 ft | 239 kts | 339° |
| 2026-05-07 11:25 | 33.80714 | -118.06622 | 6779 ft | 239 kts | 339° |
| 2026-05-07 11:26 | 33.82261 | -118.07365 | 6658 ft | 237 kts | 339° |
| 2026-05-07 11:26 | 33.83797 | -118.08099 | 6394 ft | 238 kts | 339° |
| 2026-05-07 11:26 | 33.85330 | -118.08831 | 6138 ft | 237 kts | 339° |
| 2026-05-07 11:26 | 33.86834 | -118.09552 | 5889 ft | 236 kts | 339° |
| 2026-05-07 11:27 | 33.88378 | -118.10293 | 5552 ft | 234 kts | 339° |
| 2026-05-07 11:27 | 33.89944 | -118.10813 | 5208 ft | 231 kts | 352° |
| 2026-05-07 11:27 | 33.91513 | -118.10990 | 4803 ft | 230 kts | 354° |
| 2026-05-07 11:27 | 33.93091 | -118.11178 | 4625 ft | 225 kts | 353° |
| 2026-05-07 11:28 | 33.94649 | -118.11379 | 4520 ft | 224 kts | 353° |
| 2026-05-07 11:28 | 33.96169 | -118.11708 | 4407 ft | 223 kts | 336° |
| 2026-05-07 11:28 | 33.97345 | -118.12895 | 4273 ft | 223 kts | 299° |
| 2026-05-07 11:28 | 33.97694 | -118.14066 | 4171 ft | 226 kts | 280° |
| 2026-05-07 11:29 | 33.97687 | -118.16583 | 3923 ft | 228 kts | 265° |
| 2026-05-07 11:29 | 33.97536 | -118.17871 | 3723 ft | 230 kts | 262° |
| 2026-05-07 11:29 | 33.97331 | -118.19769 | 3424 ft | 232 kts | 264° |
| 2026-05-07 11:29 | 33.97126 | -118.21706 | 3132 ft | 231 kts | 263° |
| 2026-05-07 11:30 | 33.96930 | -118.23612 | 2796 ft | 229 kts | 263° |
| 2026-05-07 11:30 | 33.96734 | -118.25473 | 2527 ft | 211 kts | 263° |
| 2026-05-07 11:30 | 33.96566 | -118.27097 | 2254 ft | 182 kts | 263° |
| 2026-05-07 11:30 | 33.96417 | -118.28526 | 2018 ft | 168 kts | 263° |
| 2026-05-07 11:31 | 33.96273 | -118.29911 | 1808 ft | 166 kts | 263° |
| 2026-05-07 11:31 | 33.96135 | -118.31242 | 1594 ft | 151 kts | 263° |
| 2026-05-07 11:31 | 33.96012 | -118.32434 | 1394 ft | 141 kts | 263° |
| 2026-05-07 11:31 | 33.95892 | -118.33590 | 1209 ft | 138 kts | 263° |
| 2026-05-07 11:32 | 33.95658 | -118.35862 | 833 ft | 135 kts | 262° |
| 2026-05-07 11:32 | 33.95545 | -118.36975 | 640 ft | 134 kts | 262° |
| 2026-05-07 11:32 | 33.95432 | -118.38095 | 449 ft | 134 kts | 262° |
| 2026-05-07 11:33 | 33.95312 | -118.39206 | 281 ft | 134 kts | 263° |
| 2026-05-07 11:33 | 33.95199 | -118.40317 | 103 ft | 132 kts | 263° |
| 2026-05-07 11:33 | 33.95107 | -118.41251 | 97 ft | 92 kts | 262° |
| 2026-05-07 11:33 | 33.95040 | -118.41856 | 99 ft | 41 kts | 263° |
| 2026-05-07 11:34 | 33.94989 | -118.42109 | 101 ft | 23 kts | 243° |
| 2026-05-07 11:34 | 33.94902 | -118.42240 | 102 ft | 18 kts | 222° |
| 2026-05-07 11:34 | 33.94810 | -118.42284 | 102 ft | 15 kts | 183° |
| 2026-05-07 11:34 | 33.94693 | -118.42270 | 101 ft | 19 kts | 172° |
| 2026-05-07 11:35 | 33.94626 | -118.42245 | 100 ft | 8 kts | 127° |
| 2026-05-07 11:35 | 33.94615 | -118.42171 | 101 ft | 11 kts | 85° |
| 2026-05-07 11:35 | 33.94622 | -118.42064 | 98 ft | 14 kts | 85° |
| 2026-05-07 11:35 | 33.94627 | -118.41952 | 100 ft | 14 kts | 88° |
| 2026-05-07 11:36 | 33.94636 | -118.41818 | 98 ft | 18 kts | 83° |
| 2026-05-07 11:36 | 33.94652 | -118.41661 | 98 ft | 20 kts | 83° |
| 2026-05-07 11:36 | 33.94664 | -118.41542 | 100 ft | 13 kts | 83° |
| 2026-05-07 11:36 | 33.94676 | -118.41420 | 99 ft | 15 kts | 83° |
| 2026-05-07 11:37 | 33.94683 | -118.41317 | 101 ft | 7 kts | 115° |
| 2026-05-07 11:37 | 33.94631 | -118.41275 | 102 ft | 11 kts | 168° |
| 2026-05-07 11:37 | 33.94538 | -118.41262 | 100 ft | 15 kts | 173° |
| 2026-05-07 11:37 | 33.94420 | -118.41243 | 99 ft | 19 kts | 172° |
| 2026-05-07 11:38 | 33.94318 | -118.41226 | 100 ft | 10 kts | 172° |
| 2026-05-07 11:38 | 33.94257 | -118.41217 | 100 ft | 9 kts | 173° |
| 2026-05-07 11:38 | 33.94202 | -118.41209 | 99 ft | 1 kts | 173° |
| 2026-05-07 11:38 | 33.94175 | -118.41205 | 99 ft | 7 kts | 173° |
| 2026-05-07 11:39 | 33.94119 | -118.41197 | 99 ft | 6 kts | 173° |
| 2026-05-07 11:39 | 33.94100 | -118.41189 | 99 ft | 3 kts | 134° |
| 2026-05-07 11:39 | 33.94090 | -118.41161 | 101 ft | 6 kts | 94° |
| 2026-05-07 11:39 | 33.94096 | -118.41114 | 101 ft | 6 kts | 78° |
| 2026-05-07 11:40 | 33.94098 | -118.41096 | 98 ft | 2 kts | 83° |
| 2026-05-07 11:40 | 33.94099 | -118.41084 | 99 ft | 0 kts | 83° |